DLH712 EDDF-RKSI
Flight info
| Callsign | DLH712 |
|---|---|
| Flight time | 11h 2m |
| Altitude | 31000 |
| Route | CINDY8S/18 CINDY Z74 HAREM DCT ASLEP DCT TAKUT DCT DINKU L603 BESNI/N0481F370 L605 MIQ DCT ALUTU DCT BIBAG Q104 AKIMA DCT PEROL DCT PESAT/N0479F380 DCT MUGGU/N0480F370 DCT FUTNA DCT BUDOP DCT EMBIB DCT BUKEL/N0481F390 DCT DINRO N743 UDROS UM859 KARDE UN644 ROLIN DCT TETRO DCT BARAD M747 SUBUT T923 ERLEV L850 BAKUV N701 LARGI B701 KRS B738 NEBIT B476 TIMGA A480 OTBOR/K0917F390 N147 BORIS/K0907F410 N147 GENDI Z621 ARBOL M610 RULAD/K0902S1250 A343 POSOT B215 FKG W188 GOVSA DCT DKO W69 HUR B339 LADIX W34 VAPGU W100 ORAVA W201 UNSEK A326 DONVO G597 AGAVO/N0506F290 Y644 REBIT |
| Aircraft | A359/H-SDE2E3GHIJ3J4J5LM1ORWXY/LB1D1 |
Departure
| Time | 2026-04-07 11:11 |
|---|---|
| Airport | Frankfurt Main Airport (EDDF) |
Arrival
| Time | 2026-04-07 22:13 |
|---|---|
| Airport | Incheon International Airport (RKSI) |
| Time | Latitude | Longitude | Altitude | Speed | Heading |
|---|---|---|---|---|---|
| 2026-04-07 10:38 | 50.04776 | 8.56496 | 362 ft | 0 kts | 340° |
| 2026-04-07 10:55 | 50.04773 | 8.56498 | 369 ft | 2 kts | 339° |
| 2026-04-07 10:55 | 50.04756 | 8.56508 | 368 ft | 3 kts | 338° |
| 2026-04-07 10:56 | 50.04737 | 8.56519 | 366 ft | 3 kts | 339° |
| 2026-04-07 10:56 | 50.04718 | 8.56530 | 364 ft | 3 kts | 343° |
| 2026-04-07 10:56 | 50.04699 | 8.56537 | 364 ft | 3 kts | 0° |
| 2026-04-07 10:56 | 50.04681 | 8.56532 | 362 ft | 3 kts | 26° |
| 2026-04-07 10:57 | 50.04662 | 8.56519 | 366 ft | 3 kts | 22° |
| 2026-04-07 10:57 | 50.04644 | 8.56507 | 370 ft | 3 kts | 22° |
| 2026-04-07 10:57 | 50.04631 | 8.56499 | 367 ft | 0 kts | 25° |
| 2026-04-07 10:57 | 50.04643 | 8.56505 | 369 ft | 3 kts | 14° |
| 2026-04-07 10:58 | 50.04662 | 8.56501 | 369 ft | 3 kts | 340° |
| 2026-04-07 10:58 | 50.04674 | 8.56480 | 366 ft | 3 kts | 303° |
| 2026-04-07 10:58 | 50.04679 | 8.56465 | 369 ft | 2 kts | 296° |
| 2026-04-07 10:58 | 50.04678 | 8.56441 | 369 ft | 3 kts | 253° |
| 2026-04-07 10:59 | 50.04669 | 8.56419 | 370 ft | 3 kts | 225° |
| 2026-04-07 10:59 | 50.04660 | 8.56410 | 370 ft | 3 kts | 232° |
| 2026-04-07 10:59 | 50.04657 | 8.56396 | 366 ft | 0 kts | 250° |
| 2026-04-07 11:02 | 50.04655 | 8.56387 | 362 ft | 6 kts | 249° |
| 2026-04-07 11:02 | 50.04625 | 8.56263 | 367 ft | 14 kts | 250° |
| 2026-04-07 11:02 | 50.04590 | 8.56115 | 369 ft | 15 kts | 250° |
| 2026-04-07 11:03 | 50.04555 | 8.55988 | 369 ft | 12 kts | 233° |
| 2026-04-07 11:03 | 50.04475 | 8.55932 | 367 ft | 13 kts | 198° |
| 2026-04-07 11:03 | 50.04416 | 8.55904 | 367 ft | 14 kts | 191° |
| 2026-04-07 11:03 | 50.04326 | 8.55938 | 366 ft | 12 kts | 158° |
| 2026-04-07 11:04 | 50.04244 | 8.55940 | 366 ft | 13 kts | 214° |
| 2026-04-07 11:04 | 50.04158 | 8.55932 | 365 ft | 14 kts | 158° |
| 2026-04-07 11:04 | 50.04070 | 8.55961 | 362 ft | 13 kts | 203° |
| 2026-04-07 11:04 | 50.04021 | 8.55837 | 365 ft | 15 kts | 249° |
| 2026-04-07 11:05 | 50.03983 | 8.55677 | 360 ft | 17 kts | 250° |
| 2026-04-07 11:05 | 50.03940 | 8.55499 | 360 ft | 18 kts | 250° |
| 2026-04-07 11:05 | 50.03896 | 8.55310 | 360 ft | 19 kts | 250° |
| 2026-04-07 11:05 | 50.03848 | 8.55108 | 361 ft | 21 kts | 249° |
| 2026-04-07 11:06 | 50.03796 | 8.54892 | 362 ft | 22 kts | 250° |
| 2026-04-07 11:06 | 50.03740 | 8.54659 | 358 ft | 24 kts | 250° |
| 2026-04-07 11:06 | 50.03679 | 8.54404 | 356 ft | 26 kts | 249° |
| 2026-04-07 11:06 | 50.03615 | 8.54135 | 355 ft | 27 kts | 249° |
| 2026-04-07 11:07 | 50.03548 | 8.53855 | 357 ft | 28 kts | 250° |
| 2026-04-07 11:07 | 50.03488 | 8.53607 | 354 ft | 17 kts | 249° |
| 2026-04-07 11:07 | 50.03461 | 8.53495 | 354 ft | 10 kts | 250° |
| 2026-04-07 11:07 | 50.03425 | 8.53433 | 351 ft | 6 kts | 200° |
| 2026-04-07 11:08 | 50.03396 | 8.53449 | 355 ft | 5 kts | 140° |
| 2026-04-07 11:08 | 50.03369 | 8.53497 | 355 ft | 7 kts | 131° |
| 2026-04-07 11:08 | 50.03334 | 8.53555 | 355 ft | 7 kts | 137° |
| 2026-04-07 11:08 | 50.03304 | 8.53615 | 356 ft | 7 kts | 101° |
| 2026-04-07 11:09 | 50.03314 | 8.53685 | 353 ft | 2 kts | 68° |
| 2026-04-07 11:09 | 50.03314 | 8.53686 | 353 ft | 0 kts | 67° |
| 2026-04-07 11:10 | 50.03324 | 8.53723 | 354 ft | 12 kts | 68° |
| 2026-04-07 11:10 | 50.03409 | 8.54079 | 354 ft | 65 kts | 70° |
| 2026-04-07 11:10 | 50.03634 | 8.55020 | 354 ft | 120 kts | 70° |
| 2026-04-07 11:10 | 50.03980 | 8.56473 | 387 ft | 163 kts | 69° |
| 2026-04-07 11:11 | 50.04325 | 8.58096 | 1049 ft | 158 kts | 72° |
| 2026-04-07 11:11 | 50.04655 | 8.59749 | 1647 ft | 162 kts | 72° |
| 2026-04-07 11:11 | 50.04998 | 8.61525 | 1848 ft | 179 kts | 72° |
| 2026-04-07 11:11 | 50.05383 | 8.63451 | 2123 ft | 195 kts | 72° |
| 2026-04-07 11:12 | 50.05813 | 8.65527 | 2383 ft | 210 kts | 71° |
| 2026-04-07 11:12 | 50.06269 | 8.67767 | 2758 ft | 222 kts | 75° |
| 2026-04-07 11:12 | 50.06228 | 8.70141 | 3334 ft | 226 kts | 111° |
| 2026-04-07 11:12 | 50.05221 | 8.71964 | 3934 ft | 227 kts | 143° |
| 2026-04-07 11:13 | 50.03797 | 8.73112 | 4447 ft | 235 kts | 154° |
| 2026-04-07 11:13 | 50.02272 | 8.74162 | 4969 ft | 242 kts | 155° |
| 2026-04-07 11:13 | 50.00635 | 8.74857 | 5433 ft | 249 kts | 180° |
| 2026-04-07 11:13 | 49.98908 | 8.74396 | 5802 ft | 260 kts | 195° |
| 2026-04-07 11:14 | 49.97098 | 8.73665 | 6096 ft | 275 kts | 193° |
| 2026-04-07 11:14 | 49.95221 | 8.73001 | 6642 ft | 279 kts | 193° |
| 2026-04-07 11:14 | 49.93310 | 8.72336 | 7124 ft | 284 kts | 193° |
| 2026-04-07 11:14 | 49.91374 | 8.71651 | 7659 ft | 286 kts | 194° |
| 2026-04-07 11:15 | 49.89420 | 8.70953 | 8182 ft | 290 kts | 194° |
| 2026-04-07 11:15 | 49.87420 | 8.70423 | 8699 ft | 294 kts | 182° |
| 2026-04-07 11:15 | 49.85406 | 8.70952 | 9220 ft | 297 kts | 156° |
| 2026-04-07 11:15 | 49.83742 | 8.72807 | 9731 ft | 298 kts | 128° |
| 2026-04-07 11:16 | 49.82760 | 8.75593 | 10252 ft | 296 kts | 105° |
| 2026-04-07 11:16 | 49.82160 | 8.78686 | 10612 ft | 305 kts | 104° |
| 2026-04-07 11:16 | 49.81562 | 8.81913 | 10840 ft | 319 kts | 104° |
| 2026-04-07 11:16 | 49.80926 | 8.85270 | 11076 ft | 331 kts | 104° |
| 2026-04-07 11:17 | 49.80253 | 8.88747 | 11320 ft | 344 kts | 105° |
| 2026-04-07 11:17 | 49.79548 | 8.92349 | 11558 ft | 355 kts | 105° |
| 2026-04-07 11:17 | 49.78816 | 8.96061 | 11780 ft | 366 kts | 105° |
| 2026-04-07 11:17 | 49.78060 | 8.99875 | 11999 ft | 376 kts | 105° |
| 2026-04-07 11:18 | 49.77281 | 9.03798 | 12271 ft | 384 kts | 105° |
| 2026-04-07 11:18 | 49.76488 | 9.07771 | 12652 ft | 389 kts | 105° |
| 2026-04-07 11:18 | 49.75712 | 9.11802 | 13035 ft | 392 kts | 103° |
| 2026-04-07 11:18 | 49.75038 | 9.15844 | 13431 ft | 395 kts | 104° |
| 2026-04-07 11:19 | 49.73942 | 9.19747 | 13840 ft | 400 kts | 121° |
| 2026-04-07 11:19 | 49.72344 | 9.23292 | 14232 ft | 403 kts | 127° |
| 2026-04-07 11:19 | 49.70547 | 9.26639 | 14626 ft | 405 kts | 130° |
| 2026-04-07 11:19 | 49.68632 | 9.29931 | 14994 ft | 409 kts | 131° |
| 2026-04-07 11:20 | 49.66702 | 9.33173 | 15366 ft | 411 kts | 131° |
| 2026-04-07 11:20 | 49.64761 | 9.36445 | 15732 ft | 414 kts | 131° |
| 2026-04-07 11:20 | 49.62926 | 9.39792 | 16091 ft | 416 kts | 124° |
| 2026-04-07 11:20 | 49.61492 | 9.43728 | 16464 ft | 416 kts | 112° |
| 2026-04-07 11:21 | 49.60384 | 9.47848 | 16849 ft | 418 kts | 109° |
| 2026-04-07 11:21 | 49.59409 | 9.52084 | 17167 ft | 421 kts | 106° |
| 2026-04-07 11:21 | 49.58500 | 9.56389 | 17540 ft | 423 kts | 105° |
| 2026-04-07 11:21 | 49.57610 | 9.60718 | 17926 ft | 425 kts | 105° |
| 2026-04-07 11:22 | 49.56714 | 9.65072 | 18286 ft | 428 kts | 105° |
| 2026-04-07 11:22 | 49.55800 | 9.69437 | 18679 ft | 429 kts | 106° |
| 2026-04-07 11:22 | 49.54883 | 9.73750 | 18988 ft | 431 kts | 106° |
| 2026-04-07 11:22 | 49.53936 | 9.78138 | 19304 ft | 433 kts | 106° |
| 2026-04-07 11:23 | 49.52737 | 9.82473 | 19601 ft | 438 kts | 116° |
| 2026-04-07 11:23 | 49.51123 | 9.86386 | 19901 ft | 440 kts | 123° |
| 2026-04-07 11:23 | 49.49302 | 9.90188 | 20212 ft | 443 kts | 126° |
| 2026-04-07 11:23 | 49.47376 | 9.93918 | 20469 ft | 447 kts | 128° |
| 2026-04-07 11:24 | 49.45399 | 9.97614 | 20787 ft | 448 kts | 128° |
| 2026-04-07 11:24 | 49.43404 | 10.01302 | 21090 ft | 450 kts | 128° |
| 2026-04-07 11:24 | 49.41395 | 10.05018 | 21401 ft | 452 kts | 128° |
| 2026-04-07 11:24 | 49.39390 | 10.08745 | 21700 ft | 454 kts | 128° |
| 2026-04-07 11:25 | 49.35380 | 10.16272 | 22272 ft | 457 kts | 128° |
| 2026-04-07 11:25 | 49.33361 | 10.20065 | 22560 ft | 459 kts | 128° |
| 2026-04-07 11:25 | 49.31338 | 10.23859 | 22871 ft | 461 kts | 128° |
| 2026-04-07 11:26 | 49.29303 | 10.27672 | 23149 ft | 463 kts | 128° |
| 2026-04-07 11:26 | 49.27256 | 10.31501 | 23398 ft | 465 kts | 128° |
| 2026-04-07 11:26 | 49.25197 | 10.35344 | 23709 ft | 467 kts | 128° |
| 2026-04-07 11:26 | 49.23020 | 10.39047 | 23971 ft | 470 kts | 132° |
| 2026-04-07 11:27 | 49.20731 | 10.42620 | 24205 ft | 472 kts | 133° |
| 2026-04-07 11:27 | 49.18396 | 10.46152 | 24433 ft | 473 kts | 134° |
| 2026-04-07 11:27 | 49.16028 | 10.49673 | 24683 ft | 475 kts | 134° |
| 2026-04-07 11:27 | 49.13651 | 10.53181 | 24927 ft | 477 kts | 135° |
| 2026-04-07 11:28 | 49.11258 | 10.56706 | 25147 ft | 478 kts | 135° |
| 2026-04-07 11:28 | 49.08860 | 10.60241 | 25382 ft | 480 kts | 135° |
| 2026-04-07 11:28 | 49.06459 | 10.63782 | 25627 ft | 481 kts | 135° |
| 2026-04-07 11:28 | 49.04049 | 10.67337 | 25851 ft | 484 kts | 134° |
| 2026-04-07 11:29 | 49.01629 | 10.70906 | 26088 ft | 485 kts | 135° |
| 2026-04-07 11:29 | 48.99201 | 10.74473 | 26371 ft | 485 kts | 135° |
| 2026-04-07 11:29 | 48.96765 | 10.78046 | 26598 ft | 487 kts | 135° |
| 2026-04-07 11:29 | 48.94320 | 10.81626 | 26833 ft | 489 kts | 135° |
| 2026-04-07 11:30 | 48.91860 | 10.85224 | 27069 ft | 491 kts | 135° |
| 2026-04-07 11:30 | 48.89400 | 10.88830 | 27322 ft | 493 kts | 135° |
| 2026-04-07 11:30 | 48.86926 | 10.92450 | 27533 ft | 494 kts | 135° |
| 2026-04-07 11:30 | 48.84443 | 10.96078 | 27799 ft | 496 kts | 135° |
| 2026-04-07 11:31 | 48.81952 | 10.99712 | 28071 ft | 498 kts | 135° |
| 2026-04-07 11:31 | 48.79446 | 11.03360 | 28304 ft | 500 kts | 135° |
| 2026-04-07 11:31 | 48.76930 | 11.07020 | 28513 ft | 502 kts | 135° |
| 2026-04-07 11:31 | 48.74448 | 11.10628 | 28850 ft | 502 kts | 135° |
| 2026-04-07 11:32 | 48.71918 | 11.14286 | 29088 ft | 504 kts | 135° |
| 2026-04-07 11:32 | 48.69343 | 11.18000 | 29320 ft | 506 kts | 135° |
| 2026-04-07 11:32 | 48.66935 | 11.21781 | 29551 ft | 506 kts | 129° |
| 2026-04-07 11:32 | 48.64861 | 11.26073 | 29760 ft | 506 kts | 120° |
| 2026-04-07 11:33 | 48.63268 | 11.30810 | 30009 ft | 505 kts | 109° |
| 2026-04-07 11:33 | 48.62048 | 11.35780 | 30250 ft | 506 kts | 107° |
| 2026-04-07 11:33 | 48.60932 | 11.40846 | 30399 ft | 508 kts | 105° |
| 2026-04-07 11:33 | 48.59870 | 11.45927 | 30615 ft | 510 kts | 105° |
| 2026-04-07 11:34 | 48.58813 | 11.51057 | 30843 ft | 511 kts | 105° |
| 2026-04-07 11:34 | 48.57752 | 11.56184 | 31131 ft | 510 kts | 105° |
| 2026-04-07 11:34 | 48.56832 | 11.61334 | 31460 ft | 507 kts | 101° |
| 2026-04-07 11:34 | 48.56039 | 11.66509 | 31763 ft | 506 kts | 100° |
| 2026-04-07 11:35 | 48.55270 | 11.71704 | 32075 ft | 505 kts | 100° |
| 2026-04-07 11:35 | 48.54518 | 11.76871 | 32391 ft | 504 kts | 99° |
| 2026-04-07 11:35 | 48.53767 | 11.82046 | 32654 ft | 504 kts | 99° |
| 2026-04-07 11:35 | 48.53018 | 11.87203 | 32950 ft | 504 kts | 99° |
| 2026-04-07 11:36 | 48.52263 | 11.92363 | 33271 ft | 503 kts | 100° |
| 2026-04-07 11:36 | 48.51506 | 11.97508 | 33563 ft | 502 kts | 100° |
| 2026-04-07 11:36 | 48.50747 | 12.02641 | 33849 ft | 501 kts | 100° |
| 2026-04-07 11:36 | 48.49986 | 12.07761 | 34151 ft | 500 kts | 100° |
| 2026-04-07 11:37 | 48.49225 | 12.12876 | 34431 ft | 499 kts | 100° |
| 2026-04-07 11:37 | 48.48461 | 12.17982 | 34679 ft | 499 kts | 100° |
| 2026-04-07 11:37 | 48.47690 | 12.23086 | 34867 ft | 500 kts | 100° |
| 2026-04-07 11:37 | 48.46915 | 12.28190 | 35089 ft | 500 kts | 100° |
| 2026-04-07 11:38 | 48.46138 | 12.33291 | 35318 ft | 500 kts | 100° |
| 2026-04-07 11:38 | 48.45359 | 12.38392 | 35553 ft | 499 kts | 100° |
| 2026-04-07 11:38 | 48.44580 | 12.43478 | 35793 ft | 499 kts | 100° |
| 2026-04-07 11:38 | 48.43799 | 12.48565 | 36011 ft | 498 kts | 100° |
| 2026-04-07 11:39 | 48.43016 | 12.53655 | 36231 ft | 498 kts | 100° |
| 2026-04-07 11:39 | 48.42232 | 12.58732 | 36438 ft | 498 kts | 100° |
| 2026-04-07 11:39 | 48.41446 | 12.63812 | 36625 ft | 498 kts | 100° |
| 2026-04-07 11:39 | 48.40659 | 12.68888 | 36816 ft | 498 kts | 100° |
| 2026-04-07 11:40 | 48.40062 | 12.74001 | 36982 ft | 494 kts | 92° |
| 2026-04-07 11:40 | 48.39906 | 12.79074 | 37168 ft | 491 kts | 86° |
| 2026-04-07 11:40 | 48.39958 | 12.84201 | 37291 ft | 491 kts | 84° |
| 2026-04-07 11:40 | 48.40081 | 12.89348 | 37308 ft | 494 kts | 84° |
| 2026-04-07 11:41 | 48.40410 | 12.99686 | 37306 ft | 494 kts | 83° |
| 2026-04-07 11:41 | 48.40735 | 13.10001 | 37301 ft | 494 kts | 83° |
| 2026-04-07 11:42 | 48.41032 | 13.20348 | 37296 ft | 495 kts | 83° |
| 2026-04-07 11:42 | 48.41095 | 13.30715 | 37296 ft | 499 kts | 92° |
| 2026-04-07 11:43 | 48.39951 | 13.41056 | 37291 ft | 502 kts | 98° |
| 2026-04-07 11:43 | 48.38503 | 13.51360 | 37292 ft | 503 kts | 98° |
| 2026-04-07 11:44 | 48.37004 | 13.61644 | 37286 ft | 504 kts | 98° |
| 2026-04-07 11:44 | 48.35512 | 13.71930 | 37278 ft | 504 kts | 98° |
| 2026-04-07 11:45 | 48.34025 | 13.82220 | 37281 ft | 504 kts | 98° |
| 2026-04-07 11:45 | 48.32534 | 13.92501 | 37285 ft | 504 kts | 98° |
| 2026-04-07 11:46 | 48.31031 | 14.02801 | 37279 ft | 505 kts | 98° |
| 2026-04-07 11:46 | 48.29518 | 14.13087 | 37293 ft | 505 kts | 98° |
| 2026-04-07 11:47 | 48.27995 | 14.23372 | 37291 ft | 505 kts | 98° |
| 2026-04-07 11:47 | 48.26462 | 14.33655 | 37292 ft | 505 kts | 98° |
| 2026-04-07 11:48 | 48.24920 | 14.43934 | 37285 ft | 505 kts | 98° |
| 2026-04-07 11:48 | 48.23273 | 14.54123 | 37278 ft | 507 kts | 102° |
| 2026-04-07 11:49 | 48.21488 | 14.62579 | 37273 ft | 509 kts | 104° |
| 2026-04-07 11:49 | 48.19252 | 14.72643 | 37268 ft | 509 kts | 104° |
| 2026-04-07 11:50 | 48.16724 | 14.84361 | 37266 ft | 508 kts | 104° |
| 2026-04-07 11:50 | 48.14948 | 14.92756 | 37253 ft | 508 kts | 103° |
| 2026-04-07 11:51 | 48.12802 | 15.02915 | 37254 ft | 508 kts | 104° |
| 2026-04-07 11:51 | 48.10674 | 15.12936 | 37256 ft | 509 kts | 103° |
| 2026-04-07 11:52 | 48.08516 | 15.23026 | 37250 ft | 510 kts | 104° |
| 2026-04-07 11:52 | 48.06349 | 15.33112 | 37248 ft | 510 kts | 104° |
| 2026-04-07 11:53 | 48.04171 | 15.43194 | 37246 ft | 510 kts | 104° |
| 2026-04-07 11:53 | 48.01985 | 15.53269 | 37233 ft | 510 kts | 104° |
| 2026-04-07 11:54 | 47.99790 | 15.63331 | 37238 ft | 509 kts | 104° |
| 2026-04-07 11:54 | 47.97586 | 15.73382 | 37234 ft | 510 kts | 104° |
| 2026-04-07 11:55 | 47.95374 | 15.83433 | 37232 ft | 510 kts | 104° |
| 2026-04-07 11:55 | 47.93161 | 15.93467 | 37236 ft | 509 kts | 103° |
| 2026-04-07 11:56 | 47.91193 | 16.03585 | 37218 ft | 508 kts | 101° |
| 2026-04-07 11:56 | 47.89338 | 16.13732 | 37227 ft | 507 kts | 101° |
| 2026-04-07 11:57 | 47.87448 | 16.23853 | 37227 ft | 508 kts | 101° |
| 2026-04-07 11:57 | 47.85513 | 16.33969 | 37235 ft | 509 kts | 101° |
| 2026-04-07 11:58 | 47.83554 | 16.44094 | 37237 ft | 509 kts | 101° |
| 2026-04-07 11:58 | 47.81585 | 16.54216 | 37237 ft | 509 kts | 102° |
| 2026-04-07 11:59 | 47.79609 | 16.64326 | 37232 ft | 509 kts | 102° |
| 2026-04-07 11:59 | 47.77625 | 16.74431 | 37234 ft | 509 kts | 102° |
| 2026-04-07 12:00 | 47.75645 | 16.84462 | 37233 ft | 509 kts | 102° |
| 2026-04-07 12:00 | 47.73643 | 16.94559 | 37233 ft | 510 kts | 102° |
| 2026-04-07 12:01 | 47.71631 | 17.04647 | 37257 ft | 509 kts | 102° |
| 2026-04-07 12:01 | 47.69615 | 17.14748 | 37236 ft | 511 kts | 102° |
| 2026-04-07 12:02 | 47.67583 | 17.24873 | 37235 ft | 512 kts | 102° |
| 2026-04-07 12:02 | 47.65541 | 17.34991 | 37236 ft | 512 kts | 102° |
| 2026-04-07 12:03 | 47.63491 | 17.45095 | 37260 ft | 512 kts | 102° |
| 2026-04-07 12:03 | 47.61430 | 17.55208 | 37240 ft | 513 kts | 102° |
| 2026-04-07 12:04 | 47.59359 | 17.65324 | 37242 ft | 513 kts | 102° |
| 2026-04-07 12:04 | 47.57275 | 17.75444 | 37238 ft | 514 kts | 102° |
| 2026-04-07 12:05 | 47.55183 | 17.85553 | 37234 ft | 514 kts | 102° |
| 2026-04-07 12:05 | 47.53078 | 17.95675 | 37225 ft | 515 kts | 102° |
| 2026-04-07 12:06 | 47.50962 | 18.05798 | 37221 ft | 515 kts | 102° |
| 2026-04-07 12:06 | 47.48836 | 18.15917 | 37218 ft | 515 kts | 102° |
| 2026-04-07 12:07 | 47.46699 | 18.26035 | 37223 ft | 516 kts | 102° |
| 2026-04-07 12:07 | 47.44548 | 18.36183 | 37215 ft | 518 kts | 102° |
| 2026-04-07 12:08 | 47.42382 | 18.46340 | 37211 ft | 519 kts | 102° |
| 2026-04-07 12:08 | 47.40205 | 18.56499 | 37213 ft | 519 kts | 102° |
| 2026-04-07 12:09 | 47.38019 | 18.66646 | 37206 ft | 520 kts | 102° |
| 2026-04-07 12:09 | 47.35819 | 18.76815 | 37207 ft | 521 kts | 102° |
| 2026-04-07 12:10 | 47.33605 | 18.86997 | 37201 ft | 521 kts | 102° |
| 2026-04-07 12:10 | 47.31380 | 18.97174 | 37194 ft | 521 kts | 102° |
| 2026-04-07 12:11 | 47.29146 | 19.07351 | 37187 ft | 524 kts | 102° |
| 2026-04-07 12:11 | 47.26894 | 19.17557 | 37187 ft | 524 kts | 102° |
| 2026-04-07 12:12 | 47.24645 | 19.27697 | 37186 ft | 524 kts | 102° |
| 2026-04-07 12:12 | 47.22373 | 19.37889 | 37202 ft | 525 kts | 102° |
| 2026-04-07 12:13 | 47.20088 | 19.48097 | 37185 ft | 526 kts | 102° |
| 2026-04-07 12:13 | 47.17792 | 19.58301 | 37174 ft | 526 kts | 102° |
| 2026-04-07 12:14 | 47.15485 | 19.68504 | 37164 ft | 526 kts | 103° |
| 2026-04-07 12:14 | 47.13076 | 19.78672 | 37161 ft | 528 kts | 104° |
| 2026-04-07 12:15 | 47.10507 | 19.88789 | 37174 ft | 530 kts | 105° |
| 2026-04-07 12:15 | 47.07924 | 19.98920 | 37165 ft | 530 kts | 105° |
| 2026-04-07 12:16 | 47.05360 | 20.09046 | 37161 ft | 530 kts | 104° |
| 2026-04-07 12:16 | 47.02796 | 20.19181 | 37152 ft | 531 kts | 104° |
| 2026-04-07 12:17 | 47.00219 | 20.29326 | 37141 ft | 531 kts | 104° |
| 2026-04-07 12:17 | 46.97633 | 20.39459 | 37148 ft | 531 kts | 105° |
| 2026-04-07 12:18 | 46.95039 | 20.49577 | 37147 ft | 531 kts | 105° |
| 2026-04-07 12:18 | 46.92431 | 20.59703 | 37146 ft | 532 kts | 105° |
| 2026-04-07 12:19 | 46.89815 | 20.69812 | 37144 ft | 532 kts | 105° |
| 2026-04-07 12:19 | 46.87207 | 20.79848 | 37145 ft | 532 kts | 105° |
| 2026-04-07 12:20 | 46.84572 | 20.89949 | 37156 ft | 533 kts | 105° |
| 2026-04-07 12:20 | 46.81922 | 21.00061 | 37138 ft | 534 kts | 105° |
| 2026-04-07 12:21 | 46.79260 | 21.10172 | 37140 ft | 534 kts | 105° |
| 2026-04-07 12:21 | 46.76589 | 21.20273 | 37175 ft | 534 kts | 105° |
| 2026-04-07 12:22 | 46.73903 | 21.30393 | 37145 ft | 535 kts | 105° |
| 2026-04-07 12:22 | 46.71206 | 21.40507 | 37145 ft | 536 kts | 105° |
| 2026-04-07 12:23 | 46.68358 | 21.50558 | 37146 ft | 540 kts | 111° |
| 2026-04-07 12:23 | 46.64976 | 21.60323 | 37151 ft | 542 kts | 112° |
| 2026-04-07 12:24 | 46.61475 | 21.70060 | 37146 ft | 543 kts | 112° |
| 2026-04-07 12:24 | 46.57953 | 21.79777 | 37145 ft | 543 kts | 112° |
| 2026-04-07 12:25 | 46.54433 | 21.89485 | 37140 ft | 543 kts | 112° |
| 2026-04-07 12:25 | 46.50908 | 21.99199 | 37145 ft | 545 kts | 112° |
| 2026-04-07 12:26 | 46.47364 | 22.08931 | 37124 ft | 545 kts | 112° |
| 2026-04-07 12:26 | 46.43821 | 22.18620 | 37140 ft | 543 kts | 113° |
| 2026-04-07 12:27 | 46.40302 | 22.28209 | 37136 ft | 543 kts | 112° |
| 2026-04-07 12:27 | 46.36751 | 22.37860 | 37132 ft | 543 kts | 112° |
| 2026-04-07 12:28 | 46.33186 | 22.47511 | 37134 ft | 544 kts | 113° |
| 2026-04-07 12:29 | 46.27818 | 22.61970 | 37137 ft | 545 kts | 113° |
| 2026-04-07 12:29 | 46.24216 | 22.71627 | 37133 ft | 546 kts | 113° |
| 2026-04-07 12:30 | 46.20604 | 22.81281 | 37123 ft | 546 kts | 113° |
| 2026-04-07 12:30 | 46.16985 | 22.90919 | 37140 ft | 547 kts | 113° |
| 2026-04-07 12:31 | 46.13354 | 23.00554 | 37118 ft | 547 kts | 113° |
| 2026-04-07 12:31 | 46.09703 | 23.10192 | 37117 ft | 548 kts | 113° |
| 2026-04-07 12:32 | 46.06053 | 23.19820 | 37113 ft | 548 kts | 114° |
| 2026-04-07 12:32 | 46.02389 | 23.29455 | 37110 ft | 549 kts | 114° |
| 2026-04-07 12:33 | 45.98710 | 23.39078 | 37086 ft | 549 kts | 114° |
| 2026-04-07 12:33 | 45.95026 | 23.48675 | 37103 ft | 547 kts | 114° |
| 2026-04-07 12:34 | 45.91344 | 23.58241 | 37099 ft | 547 kts | 114° |
| 2026-04-07 12:34 | 45.87670 | 23.67786 | 37096 ft | 546 kts | 114° |
| 2026-04-07 12:35 | 45.84088 | 23.77297 | 37088 ft | 545 kts | 113° |
| 2026-04-07 12:35 | 45.80494 | 23.86870 | 37083 ft | 545 kts | 113° |
| 2026-04-07 12:36 | 45.76880 | 23.96427 | 37076 ft | 545 kts | 114° |
| 2026-04-07 12:36 | 45.73251 | 24.05969 | 37075 ft | 546 kts | 114° |
| 2026-04-07 12:37 | 45.69611 | 24.15498 | 37092 ft | 546 kts | 114° |
| 2026-04-07 12:37 | 45.65959 | 24.25026 | 37089 ft | 548 kts | 114° |
| 2026-04-07 12:38 | 45.62291 | 24.34572 | 37076 ft | 549 kts | 114° |
| 2026-04-07 12:38 | 45.59229 | 24.42513 | 37083 ft | 549 kts | 114° |
| 2026-04-07 12:39 | 45.55539 | 24.52047 | 37094 ft | 549 kts | 114° |
| 2026-04-07 12:39 | 45.51836 | 24.61599 | 37076 ft | 551 kts | 114° |
| 2026-04-07 12:40 | 45.48113 | 24.71138 | 37059 ft | 550 kts | 114° |
| 2026-04-07 12:40 | 45.44394 | 24.80640 | 37063 ft | 547 kts | 114° |
| 2026-04-07 12:41 | 45.40680 | 24.90103 | 37059 ft | 549 kts | 114° |
| 2026-04-07 12:41 | 45.36949 | 24.99580 | 37049 ft | 549 kts | 115° |
| 2026-04-07 12:42 | 45.33206 | 25.09056 | 37044 ft | 550 kts | 115° |
| 2026-04-07 12:42 | 45.29455 | 25.18517 | 37045 ft | 550 kts | 115° |
| 2026-04-07 12:43 | 45.25692 | 25.27977 | 37017 ft | 550 kts | 115° |
| 2026-04-07 12:43 | 45.21926 | 25.37432 | 37007 ft | 550 kts | 115° |
| 2026-04-07 12:44 | 45.18152 | 25.46871 | 37033 ft | 551 kts | 115° |
| 2026-04-07 12:44 | 45.14346 | 25.56323 | 37027 ft | 553 kts | 115° |
| 2026-04-07 12:45 | 45.10526 | 25.65783 | 37028 ft | 553 kts | 115° |
| 2026-04-07 12:45 | 45.06700 | 25.75227 | 37058 ft | 553 kts | 116° |
| 2026-04-07 12:46 | 45.02752 | 25.84585 | 37028 ft | 555 kts | 117° |
| 2026-04-07 12:46 | 44.98762 | 25.93857 | 37030 ft | 556 kts | 117° |
| 2026-04-07 12:47 | 44.94752 | 26.03187 | 37007 ft | 555 kts | 117° |
| 2026-04-07 12:47 | 44.90765 | 26.12479 | 37034 ft | 553 kts | 118° |
| 2026-04-07 12:48 | 44.86778 | 26.21753 | 37039 ft | 553 kts | 118° |
| 2026-04-07 12:48 | 44.82784 | 26.31016 | 37041 ft | 553 kts | 118° |
| 2026-04-07 12:49 | 44.78781 | 26.40266 | 37043 ft | 554 kts | 118° |
| 2026-04-07 12:49 | 44.74759 | 26.49530 | 37043 ft | 555 kts | 118° |
| 2026-04-07 12:50 | 44.70729 | 26.58780 | 37048 ft | 555 kts | 118° |
| 2026-04-07 12:50 | 44.66689 | 26.68024 | 37045 ft | 555 kts | 119° |
| 2026-04-07 12:51 | 44.62637 | 26.77264 | 37059 ft | 556 kts | 119° |
| 2026-04-07 12:51 | 44.58573 | 26.86503 | 37047 ft | 556 kts | 119° |
| 2026-04-07 12:52 | 44.54503 | 26.95727 | 37055 ft | 556 kts | 119° |
| 2026-04-07 12:52 | 44.50422 | 27.04944 | 37045 ft | 556 kts | 119° |
| 2026-04-07 12:53 | 44.46335 | 27.14144 | 37025 ft | 556 kts | 119° |
| 2026-04-07 12:53 | 44.42244 | 27.23323 | 37066 ft | 555 kts | 119° |
| 2026-04-07 12:54 | 44.38153 | 27.32476 | 37051 ft | 555 kts | 119° |
| 2026-04-07 12:54 | 44.34056 | 27.41614 | 37054 ft | 555 kts | 119° |
| 2026-04-07 12:55 | 44.29949 | 27.50744 | 37048 ft | 555 kts | 119° |
| 2026-04-07 12:55 | 44.25835 | 27.59861 | 37045 ft | 555 kts | 119° |
| 2026-04-07 12:56 | 44.21741 | 27.68903 | 37063 ft | 555 kts | 119° |
| 2026-04-07 12:56 | 44.17612 | 27.77997 | 37066 ft | 555 kts | 119° |
| 2026-04-07 12:57 | 44.13471 | 27.87087 | 37053 ft | 556 kts | 120° |
| 2026-04-07 12:57 | 44.09316 | 27.96180 | 37050 ft | 556 kts | 120° |
| 2026-04-07 12:58 | 44.05158 | 28.05248 | 37048 ft | 556 kts | 120° |
| 2026-04-07 12:58 | 44.00987 | 28.14319 | 37053 ft | 557 kts | 120° |
| 2026-04-07 12:59 | 43.96810 | 28.23373 | 37016 ft | 557 kts | 120° |
| 2026-04-07 12:59 | 43.92631 | 28.32401 | 37054 ft | 555 kts | 120° |
| 2026-04-07 13:00 | 43.88456 | 28.41396 | 37069 ft | 555 kts | 121° |
| 2026-04-07 13:00 | 43.84271 | 28.50385 | 37070 ft | 555 kts | 121° |
| 2026-04-07 13:01 | 43.80076 | 28.59365 | 37074 ft | 555 kts | 121° |
| 2026-04-07 13:01 | 43.75876 | 28.68333 | 37070 ft | 554 kts | 121° |
| 2026-04-07 13:02 | 43.71684 | 28.77252 | 37078 ft | 553 kts | 121° |
| 2026-04-07 13:02 | 43.67424 | 28.86106 | 37086 ft | 553 kts | 123° |
| 2026-04-07 13:03 | 43.62889 | 28.94696 | 37086 ft | 554 kts | 125° |
| 2026-04-07 13:03 | 43.58304 | 29.03243 | 37086 ft | 554 kts | 125° |
| 2026-04-07 13:04 | 43.53787 | 29.11748 | 37092 ft | 554 kts | 124° |
| 2026-04-07 13:04 | 43.49225 | 29.20384 | 37064 ft | 554 kts | 124° |
| 2026-04-07 13:05 | 43.44723 | 29.28896 | 37099 ft | 553 kts | 124° |
| 2026-04-07 13:05 | 43.40192 | 29.37438 | 37105 ft | 553 kts | 124° |
| 2026-04-07 13:06 | 43.35654 | 29.45966 | 37103 ft | 553 kts | 125° |
| 2026-04-07 13:06 | 43.31101 | 29.54494 | 37098 ft | 554 kts | 125° |
| 2026-04-07 13:07 | 43.26539 | 29.63011 | 37100 ft | 554 kts | 125° |
| 2026-04-07 13:07 | 43.21972 | 29.71516 | 37104 ft | 554 kts | 125° |
| 2026-04-07 13:08 | 43.17396 | 29.80012 | 37103 ft | 554 kts | 125° |
| 2026-04-07 13:08 | 43.12815 | 29.88496 | 37109 ft | 554 kts | 125° |
| 2026-04-07 13:09 | 43.08230 | 29.96961 | 37112 ft | 553 kts | 126° |
| 2026-04-07 13:09 | 43.03641 | 30.05408 | 37098 ft | 553 kts | 126° |
| 2026-04-07 13:10 | 42.99061 | 30.13816 | 37122 ft | 551 kts | 126° |
| 2026-04-07 13:10 | 42.94477 | 30.22206 | 37114 ft | 551 kts | 126° |
| 2026-04-07 13:11 | 42.89893 | 30.30575 | 37109 ft | 551 kts | 126° |
| 2026-04-07 13:11 | 42.85302 | 30.38932 | 37109 ft | 551 kts | 126° |
| 2026-04-07 13:12 | 42.80704 | 30.47277 | 37114 ft | 550 kts | 126° |
| 2026-04-07 13:12 | 42.76217 | 30.55710 | 37113 ft | 550 kts | 119° |
| 2026-04-07 13:13 | 42.73415 | 30.65253 | 37116 ft | 541 kts | 97° |
| 2026-04-07 13:13 | 42.72182 | 30.75324 | 37117 ft | 539 kts | 94° |
| 2026-04-07 13:14 | 42.71206 | 30.85440 | 37110 ft | 540 kts | 93° |
| 2026-04-07 13:14 | 42.70221 | 30.95576 | 37111 ft | 541 kts | 94° |
| 2026-04-07 13:15 | 42.69195 | 31.05635 | 37110 ft | 541 kts | 94° |
| 2026-04-07 13:15 | 42.68135 | 31.15756 | 37109 ft | 541 kts | 94° |
| 2026-04-07 13:16 | 42.67064 | 31.25871 | 37107 ft | 541 kts | 95° |
| 2026-04-07 13:16 | 42.65985 | 31.35983 | 37108 ft | 541 kts | 95° |
| 2026-04-07 13:17 | 42.64899 | 31.46103 | 37108 ft | 542 kts | 95° |
| 2026-04-07 13:17 | 42.63799 | 31.56255 | 37097 ft | 544 kts | 95° |
| 2026-04-07 13:18 | 42.62687 | 31.66423 | 37105 ft | 544 kts | 95° |
| 2026-04-07 13:18 | 42.61566 | 31.76587 | 37099 ft | 544 kts | 95° |
| 2026-04-07 13:19 | 42.60437 | 31.86748 | 37109 ft | 545 kts | 96° |
| 2026-04-07 13:19 | 42.59298 | 31.96920 | 37106 ft | 545 kts | 96° |
| 2026-04-07 13:20 | 42.58158 | 32.07094 | 37098 ft | 545 kts | 96° |
| 2026-04-07 13:20 | 42.57009 | 32.17269 | 37100 ft | 545 kts | 96° |
| 2026-04-07 13:21 | 42.55842 | 32.27423 | 37103 ft | 544 kts | 97° |
| 2026-04-07 13:21 | 42.54666 | 32.37553 | 37092 ft | 544 kts | 97° |
| 2026-04-07 13:22 | 42.53482 | 32.47687 | 37097 ft | 545 kts | 97° |
| 2026-04-07 13:22 | 42.52287 | 32.57854 | 37089 ft | 546 kts | 98° |
| 2026-04-07 13:23 | 42.51088 | 32.67976 | 37105 ft | 543 kts | 98° |
| 2026-04-07 13:23 | 42.49881 | 32.78073 | 37093 ft | 542 kts | 98° |
| 2026-04-07 13:24 | 42.48667 | 32.88154 | 37090 ft | 542 kts | 98° |
| 2026-04-07 13:24 | 42.47444 | 32.98241 | 37090 ft | 543 kts | 98° |
| 2026-04-07 13:25 | 42.46420 | 33.06621 | 37089 ft | 543 kts | 98° |
| 2026-04-07 13:25 | 42.45183 | 33.16702 | 37089 ft | 542 kts | 98° |
| 2026-04-07 13:26 | 42.43731 | 33.28405 | 37075 ft | 542 kts | 99° |
| 2026-04-07 13:26 | 42.42676 | 33.36816 | 37085 ft | 540 kts | 99° |
| 2026-04-07 13:27 | 42.41417 | 33.46830 | 37088 ft | 540 kts | 99° |
| 2026-04-07 13:27 | 42.40144 | 33.56867 | 37081 ft | 542 kts | 99° |
| 2026-04-07 13:28 | 42.38860 | 33.66913 | 37071 ft | 542 kts | 100° |
| 2026-04-07 13:28 | 42.37570 | 33.76944 | 37077 ft | 541 kts | 100° |
| 2026-04-07 13:29 | 42.36271 | 33.86969 | 37072 ft | 541 kts | 100° |
| 2026-04-07 13:29 | 42.34972 | 33.96986 | 37075 ft | 541 kts | 100° |
| 2026-04-07 13:30 | 42.33660 | 34.07001 | 37077 ft | 541 kts | 100° |
| 2026-04-07 13:30 | 42.32347 | 34.16948 | 37069 ft | 541 kts | 100° |
| 2026-04-07 13:31 | 42.31019 | 34.26953 | 37067 ft | 541 kts | 100° |
| 2026-04-07 13:31 | 42.29681 | 34.36965 | 37059 ft | 541 kts | 100° |
| 2026-04-07 13:32 | 42.28336 | 34.46972 | 37072 ft | 542 kts | 101° |
| 2026-04-07 13:32 | 42.26975 | 34.56997 | 37053 ft | 543 kts | 101° |
| 2026-04-07 13:33 | 42.25604 | 34.67023 | 37053 ft | 543 kts | 101° |
| 2026-04-07 13:33 | 42.23535 | 34.82043 | 37043 ft | 542 kts | 101° |
| 2026-04-07 13:34 | 42.22145 | 34.92055 | 37046 ft | 542 kts | 101° |
| 2026-04-07 13:34 | 42.20739 | 35.02052 | 37032 ft | 542 kts | 101° |
| 2026-04-07 13:35 | 42.19327 | 35.12037 | 37033 ft | 542 kts | 101° |
| 2026-04-07 13:35 | 42.17910 | 35.22010 | 37036 ft | 542 kts | 101° |
| 2026-04-07 13:36 | 42.16484 | 35.31977 | 37026 ft | 542 kts | 101° |
| 2026-04-07 13:36 | 42.15050 | 35.41945 | 37014 ft | 542 kts | 101° |
| 2026-04-07 13:37 | 42.13618 | 35.51882 | 37014 ft | 539 kts | 102° |
| 2026-04-07 13:37 | 42.12185 | 35.61723 | 37012 ft | 539 kts | 102° |
| 2026-04-07 13:38 | 42.10735 | 35.71617 | 37001 ft | 539 kts | 102° |
| 2026-04-07 13:38 | 42.09278 | 35.81510 | 36991 ft | 537 kts | 102° |
| 2026-04-07 13:39 | 42.07819 | 35.91351 | 36998 ft | 536 kts | 102° |
| 2026-04-07 13:39 | 42.06352 | 36.01183 | 36979 ft | 536 kts | 102° |
| 2026-04-07 13:40 | 42.04878 | 36.11009 | 36959 ft | 536 kts | 102° |
| 2026-04-07 13:40 | 42.03394 | 36.20838 | 36985 ft | 536 kts | 103° |
| 2026-04-07 13:41 | 42.01902 | 36.30660 | 36971 ft | 536 kts | 103° |
| 2026-04-07 13:41 | 42.00402 | 36.40480 | 36976 ft | 536 kts | 103° |
| 2026-04-07 13:42 | 41.98892 | 36.50304 | 36963 ft | 536 kts | 103° |
| 2026-04-07 13:42 | 41.97373 | 36.60126 | 36980 ft | 537 kts | 103° |
| 2026-04-07 13:43 | 41.95844 | 36.69947 | 36965 ft | 537 kts | 103° |
| 2026-04-07 13:43 | 41.94308 | 36.79762 | 36962 ft | 537 kts | 103° |
| 2026-04-07 13:44 | 41.92764 | 36.89569 | 36966 ft | 536 kts | 103° |
| 2026-04-07 13:44 | 41.91213 | 36.99362 | 36951 ft | 536 kts | 103° |
| 2026-04-07 13:45 | 41.90350 | 37.09296 | 36948 ft | 537 kts | 93° |
| 2026-04-07 13:45 | 41.90129 | 37.19322 | 36937 ft | 537 kts | 91° |
| 2026-04-07 13:46 | 41.90005 | 37.29342 | 36972 ft | 536 kts | 91° |
| 2026-04-07 13:46 | 41.89872 | 37.39354 | 36945 ft | 537 kts | 91° |
| 2026-04-07 13:47 | 41.89712 | 37.49313 | 36959 ft | 537 kts | 91° |
| 2026-04-07 13:47 | 41.89535 | 37.59331 | 36931 ft | 537 kts | 92° |
| 2026-04-07 13:48 | 41.89349 | 37.69345 | 36947 ft | 536 kts | 92° |
| 2026-04-07 13:48 | 41.89154 | 37.79343 | 36954 ft | 536 kts | 92° |
| 2026-04-07 13:49 | 41.88952 | 37.89346 | 36950 ft | 536 kts | 92° |
| 2026-04-07 13:49 | 41.88741 | 37.99361 | 36946 ft | 537 kts | 92° |
| 2026-04-07 13:50 | 41.88521 | 38.09357 | 36937 ft | 535 kts | 92° |
| 2026-04-07 13:50 | 41.88293 | 38.19328 | 36938 ft | 534 kts | 92° |
| 2026-04-07 13:51 | 41.88056 | 38.29291 | 36936 ft | 534 kts | 92° |
| 2026-04-07 13:51 | 41.87811 | 38.39260 | 36939 ft | 534 kts | 92° |
| 2026-04-07 13:52 | 41.87558 | 38.49213 | 36934 ft | 533 kts | 92° |
| 2026-04-07 13:52 | 41.87297 | 38.59134 | 36935 ft | 531 kts | 92° |
| 2026-04-07 13:53 | 41.87027 | 38.69039 | 36931 ft | 531 kts | 92° |
| 2026-04-07 13:53 | 41.86750 | 38.78944 | 36932 ft | 531 kts | 92° |
| 2026-04-07 13:54 | 41.86463 | 38.88846 | 36933 ft | 531 kts | 92° |
| 2026-04-07 13:54 | 41.86171 | 38.98681 | 36932 ft | 531 kts | 92° |
| 2026-04-07 13:55 | 41.85869 | 39.08563 | 36930 ft | 530 kts | 93° |
| 2026-04-07 13:55 | 41.85557 | 39.18450 | 36934 ft | 531 kts | 93° |
| 2026-04-07 13:56 | 41.85237 | 39.28336 | 36927 ft | 530 kts | 93° |
| 2026-04-07 13:56 | 41.84909 | 39.38218 | 36937 ft | 530 kts | 93° |
| 2026-04-07 13:57 | 41.84573 | 39.48090 | 36934 ft | 530 kts | 93° |
| 2026-04-07 13:57 | 41.84233 | 39.57972 | 36934 ft | 530 kts | 93° |
| 2026-04-07 13:58 | 41.83880 | 39.67848 | 36936 ft | 530 kts | 93° |
| 2026-04-07 13:58 | 41.83517 | 39.77715 | 36933 ft | 529 kts | 93° |
| 2026-04-07 13:59 | 41.83147 | 39.87566 | 36930 ft | 529 kts | 93° |
| 2026-04-07 13:59 | 41.82770 | 39.97421 | 36926 ft | 529 kts | 93° |
| 2026-04-07 14:00 | 41.82385 | 40.07271 | 36927 ft | 529 kts | 93° |
| 2026-04-07 14:00 | 41.81995 | 40.17122 | 36929 ft | 529 kts | 93° |
| 2026-04-07 14:01 | 41.81593 | 40.26963 | 36927 ft | 529 kts | 93° |
| 2026-04-07 14:01 | 41.81178 | 40.36797 | 36925 ft | 528 kts | 93° |
| 2026-04-07 14:02 | 41.80756 | 40.46631 | 36926 ft | 528 kts | 93° |
| 2026-04-07 14:02 | 41.80328 | 40.56458 | 36924 ft | 528 kts | 94° |
| 2026-04-07 14:03 | 41.79892 | 40.66285 | 36926 ft | 528 kts | 94° |
| 2026-04-07 14:03 | 41.79432 | 40.76111 | 36928 ft | 528 kts | 94° |
| 2026-04-07 14:04 | 41.78940 | 40.85934 | 36930 ft | 528 kts | 94° |
| 2026-04-07 14:04 | 41.78446 | 40.95680 | 36923 ft | 528 kts | 94° |
| 2026-04-07 14:05 | 41.77945 | 41.05473 | 36929 ft | 526 kts | 94° |
| 2026-04-07 14:05 | 41.77439 | 41.15252 | 36934 ft | 526 kts | 94° |
| 2026-04-07 14:06 | 41.76925 | 41.25036 | 36935 ft | 526 kts | 94° |
| 2026-04-07 14:06 | 41.76403 | 41.34810 | 36938 ft | 526 kts | 94° |
| 2026-04-07 14:07 | 41.75873 | 41.44566 | 36939 ft | 525 kts | 94° |
| 2026-04-07 14:07 | 41.75335 | 41.54307 | 36939 ft | 524 kts | 94° |
| 2026-04-07 14:08 | 41.74790 | 41.64032 | 36938 ft | 524 kts | 94° |
| 2026-04-07 14:08 | 41.74238 | 41.73751 | 36937 ft | 524 kts | 95° |
| 2026-04-07 14:09 | 41.73677 | 41.83472 | 36934 ft | 523 kts | 95° |
| 2026-04-07 14:09 | 41.73108 | 41.93177 | 36932 ft | 523 kts | 95° |
| 2026-04-07 14:10 | 41.72533 | 42.02880 | 36923 ft | 522 kts | 95° |
| 2026-04-07 14:10 | 41.71948 | 42.12566 | 36917 ft | 522 kts | 95° |
| 2026-04-07 14:11 | 41.71355 | 42.22250 | 36913 ft | 522 kts | 95° |
| 2026-04-07 14:11 | 41.70756 | 42.31924 | 36920 ft | 521 kts | 95° |
| 2026-04-07 14:12 | 41.70149 | 42.41583 | 36910 ft | 521 kts | 95° |
| 2026-04-07 14:12 | 41.69533 | 42.51245 | 36914 ft | 521 kts | 95° |
| 2026-04-07 14:13 | 41.69016 | 42.59273 | 36918 ft | 521 kts | 95° |
| 2026-04-07 14:13 | 41.68385 | 42.68943 | 36912 ft | 522 kts | 95° |
| 2026-04-07 14:14 | 41.67640 | 42.80200 | 36917 ft | 523 kts | 95° |
| 2026-04-07 14:14 | 41.67088 | 42.88305 | 36908 ft | 522 kts | 96° |
| 2026-04-07 14:15 | 41.65930 | 42.97887 | 36914 ft | 522 kts | 102° |
| 2026-04-07 14:15 | 41.64529 | 43.07350 | 36920 ft | 523 kts | 102° |
| 2026-04-07 14:16 | 41.63169 | 43.16895 | 36921 ft | 523 kts | 101° |
| 2026-04-07 14:16 | 41.61867 | 43.26462 | 36932 ft | 523 kts | 101° |
| 2026-04-07 14:17 | 41.60581 | 43.36021 | 36927 ft | 523 kts | 101° |
| 2026-04-07 14:17 | 41.59285 | 43.45590 | 36942 ft | 524 kts | 101° |
| 2026-04-07 14:18 | 41.57978 | 43.55162 | 36948 ft | 524 kts | 101° |
| 2026-04-07 14:18 | 41.56658 | 43.64741 | 36948 ft | 524 kts | 101° |
| 2026-04-07 14:19 | 41.55333 | 43.74310 | 36945 ft | 525 kts | 101° |
| 2026-04-07 14:19 | 41.53997 | 43.83886 | 36953 ft | 525 kts | 101° |
| 2026-04-07 14:20 | 41.52653 | 43.93458 | 36953 ft | 525 kts | 102° |
| 2026-04-07 14:20 | 41.51301 | 44.03030 | 36954 ft | 524 kts | 102° |
| 2026-04-07 14:21 | 41.49943 | 44.12583 | 36953 ft | 524 kts | 102° |
| 2026-04-07 14:21 | 41.48576 | 44.22141 | 36951 ft | 525 kts | 102° |
| 2026-04-07 14:22 | 41.47201 | 44.31700 | 36948 ft | 525 kts | 102° |
| 2026-04-07 14:22 | 41.45817 | 44.41250 | 36945 ft | 525 kts | 102° |
| 2026-04-07 14:23 | 41.44426 | 44.50803 | 36942 ft | 525 kts | 102° |
| 2026-04-07 14:23 | 41.43025 | 44.60357 | 36939 ft | 525 kts | 102° |
| 2026-04-07 14:24 | 41.41618 | 44.69898 | 36941 ft | 525 kts | 102° |
| 2026-04-07 14:24 | 41.40203 | 44.79438 | 36928 ft | 525 kts | 102° |
| 2026-04-07 14:25 | 41.38780 | 44.88971 | 36916 ft | 525 kts | 102° |
| 2026-04-07 14:25 | 41.37347 | 44.98520 | 36917 ft | 526 kts | 102° |
| 2026-04-07 14:26 | 41.35816 | 45.08033 | 36917 ft | 525 kts | 108° |
| 2026-04-07 14:26 | 41.33620 | 45.17222 | 36907 ft | 524 kts | 110° |
| 2026-04-07 14:27 | 41.31267 | 45.26405 | 36898 ft | 525 kts | 111° |
| 2026-04-07 14:27 | 41.28884 | 45.35572 | 36922 ft | 525 kts | 111° |
| 2026-04-07 14:28 | 41.26502 | 45.44744 | 36904 ft | 524 kts | 111° |
| 2026-04-07 14:28 | 41.24125 | 45.53898 | 36904 ft | 524 kts | 111° |
| 2026-04-07 14:29 | 41.21740 | 45.63053 | 36906 ft | 525 kts | 111° |
| 2026-04-07 14:29 | 41.19348 | 45.72217 | 36902 ft | 525 kts | 111° |
| 2026-04-07 14:30 | 41.16935 | 45.81362 | 36908 ft | 525 kts | 111° |
| 2026-04-07 14:30 | 41.14511 | 45.90508 | 36907 ft | 526 kts | 111° |
| 2026-04-07 14:31 | 41.12080 | 45.99658 | 36907 ft | 526 kts | 111° |
| 2026-04-07 14:31 | 41.09646 | 46.08792 | 36909 ft | 526 kts | 111° |
| 2026-04-07 14:32 | 41.07201 | 46.17935 | 36918 ft | 526 kts | 111° |
| 2026-04-07 14:32 | 41.04746 | 46.27079 | 36919 ft | 527 kts | 111° |
| 2026-04-07 14:33 | 41.02297 | 46.36222 | 36921 ft | 527 kts | 111° |
| 2026-04-07 14:33 | 40.99856 | 46.45362 | 36912 ft | 526 kts | 111° |
| 2026-04-07 14:34 | 40.97410 | 46.54486 | 36930 ft | 526 kts | 111° |
| 2026-04-07 14:34 | 40.94955 | 46.63600 | 36925 ft | 526 kts | 111° |
| 2026-04-07 14:35 | 40.92491 | 46.72714 | 36926 ft | 526 kts | 111° |
| 2026-04-07 14:35 | 40.90232 | 46.81846 | 36925 ft | 528 kts | 103° |
| 2026-04-07 14:36 | 40.89202 | 46.91466 | 36936 ft | 529 kts | 97° |
| 2026-04-07 14:36 | 40.88488 | 47.01151 | 36932 ft | 530 kts | 96° |
| 2026-04-07 14:37 | 40.87814 | 47.10831 | 36935 ft | 530 kts | 96° |
| 2026-04-07 14:37 | 40.87107 | 47.20589 | 36932 ft | 530 kts | 97° |
| 2026-04-07 14:38 | 40.86384 | 47.30217 | 36928 ft | 530 kts | 97° |
| 2026-04-07 14:38 | 40.85645 | 47.39899 | 36926 ft | 530 kts | 97° |
| 2026-04-07 14:39 | 40.84530 | 47.54428 | 36901 ft | 530 kts | 96° |
| 2026-04-07 14:40 | 40.83927 | 47.64143 | 36911 ft | 531 kts | 95° |
| 2026-04-07 14:40 | 40.83365 | 47.73852 | 36911 ft | 531 kts | 95° |
| 2026-04-07 14:41 | 40.82775 | 47.83587 | 36938 ft | 531 kts | 96° |
| 2026-04-07 14:41 | 40.82161 | 47.93301 | 36935 ft | 531 kts | 96° |
| 2026-04-07 14:42 | 40.81534 | 48.03014 | 36935 ft | 531 kts | 96° |
| 2026-04-07 14:42 | 40.80899 | 48.12725 | 36933 ft | 531 kts | 96° |
| 2026-04-07 14:43 | 40.80259 | 48.22404 | 36930 ft | 528 kts | 96° |
| 2026-04-07 14:43 | 40.79613 | 48.32060 | 36929 ft | 528 kts | 96° |
| 2026-04-07 14:44 | 40.78958 | 48.41712 | 36914 ft | 528 kts | 96° |
| 2026-04-07 14:44 | 40.78294 | 48.51368 | 36917 ft | 529 kts | 96° |
| 2026-04-07 14:45 | 40.77622 | 48.61045 | 36905 ft | 529 kts | 96° |
| 2026-04-07 14:45 | 40.76944 | 48.70690 | 36912 ft | 527 kts | 96° |
| 2026-04-07 14:46 | 40.76265 | 48.80240 | 36892 ft | 526 kts | 96° |
| 2026-04-07 14:46 | 40.75573 | 48.89852 | 36890 ft | 528 kts | 97° |
| 2026-04-07 14:47 | 40.74868 | 48.99506 | 36877 ft | 529 kts | 97° |
| 2026-04-07 14:47 | 40.74156 | 49.09166 | 36876 ft | 529 kts | 97° |
| 2026-04-07 14:48 | 40.73438 | 49.18803 | 36866 ft | 528 kts | 97° |
| 2026-04-07 14:48 | 40.71797 | 49.28163 | 36865 ft | 523 kts | 111° |
| 2026-04-07 14:49 | 40.69248 | 49.37168 | 36868 ft | 525 kts | 114° |
| 2026-04-07 14:49 | 40.66543 | 49.46112 | 36872 ft | 525 kts | 114° |
| 2026-04-07 14:50 | 40.63831 | 49.55043 | 36881 ft | 525 kts | 114° |
| 2026-04-07 14:50 | 40.61044 | 49.63937 | 36887 ft | 526 kts | 116° |
| 2026-04-07 14:51 | 40.58081 | 49.72754 | 36896 ft | 527 kts | 116° |
| 2026-04-07 14:51 | 40.55112 | 49.81557 | 36903 ft | 527 kts | 116° |
| 2026-04-07 14:52 | 40.52158 | 49.90386 | 36910 ft | 528 kts | 116° |
| 2026-04-07 14:52 | 40.49207 | 49.99225 | 36911 ft | 527 kts | 116° |
| 2026-04-07 14:53 | 40.46885 | 50.08360 | 36918 ft | 530 kts | 104° |
| 2026-04-07 14:53 | 40.45481 | 50.17889 | 36907 ft | 532 kts | 102° |
| 2026-04-07 14:54 | 40.44220 | 50.27488 | 36910 ft | 534 kts | 101° |
| 2026-04-07 14:54 | 40.42965 | 50.37033 | 36914 ft | 535 kts | 102° |
| 2026-04-07 14:55 | 40.41672 | 50.46648 | 36918 ft | 535 kts | 102° |
| 2026-04-07 14:55 | 40.40360 | 50.56252 | 36918 ft | 535 kts | 102° |
| 2026-04-07 14:56 | 40.39038 | 50.65849 | 36924 ft | 536 kts | 102° |
| 2026-04-07 14:56 | 40.37703 | 50.75480 | 36932 ft | 536 kts | 102° |
| 2026-04-07 14:57 | 40.36363 | 50.85101 | 36934 ft | 536 kts | 102° |
| 2026-04-07 14:57 | 40.35016 | 50.94706 | 36934 ft | 537 kts | 102° |
| 2026-04-07 14:58 | 40.33657 | 51.04337 | 36943 ft | 537 kts | 102° |
| 2026-04-07 14:58 | 40.32289 | 51.13972 | 36942 ft | 538 kts | 102° |
| 2026-04-07 14:59 | 40.30914 | 51.23597 | 36948 ft | 538 kts | 103° |
| 2026-04-07 14:59 | 40.29531 | 51.33223 | 36943 ft | 539 kts | 103° |
| 2026-04-07 15:00 | 40.28133 | 51.42882 | 36947 ft | 540 kts | 103° |
| 2026-04-07 15:00 | 40.26729 | 51.52548 | 36949 ft | 541 kts | 103° |
| 2026-04-07 15:01 | 40.25316 | 51.62216 | 36950 ft | 540 kts | 103° |
| 2026-04-07 15:01 | 40.24135 | 51.70229 | 36945 ft | 538 kts | 103° |
| 2026-04-07 15:02 | 40.22712 | 51.79841 | 36949 ft | 538 kts | 103° |
| 2026-04-07 15:02 | 40.21281 | 51.89450 | 36957 ft | 538 kts | 103° |
| 2026-04-07 15:03 | 40.19843 | 51.99047 | 36959 ft | 538 kts | 103° |
| 2026-04-07 15:03 | 40.18396 | 52.08655 | 36918 ft | 540 kts | 103° |
| 2026-04-07 15:03 | 40.17666 | 52.13473 | 37107 ft | 540 kts | 103° |
| 2026-04-07 15:04 | 40.16936 | 52.18288 | 37347 ft | 540 kts | 103° |
| 2026-04-07 15:04 | 40.16204 | 52.23099 | 37573 ft | 539 kts | 103° |
| 2026-04-07 15:04 | 40.15470 | 52.27906 | 37743 ft | 540 kts | 103° |
| 2026-04-07 15:04 | 40.14733 | 52.32723 | 37891 ft | 541 kts | 103° |
| 2026-04-07 15:05 | 40.13992 | 52.37547 | 38060 ft | 542 kts | 103° |
| 2026-04-07 15:05 | 40.13248 | 52.42377 | 38199 ft | 542 kts | 103° |
| 2026-04-07 15:05 | 40.12501 | 52.47214 | 38276 ft | 544 kts | 103° |
| 2026-04-07 15:05 | 40.11749 | 52.52065 | 38420 ft | 545 kts | 103° |
| 2026-04-07 15:06 | 40.10996 | 52.56916 | 38559 ft | 545 kts | 103° |
| 2026-04-07 15:06 | 40.10239 | 52.61776 | 38682 ft | 546 kts | 103° |
| 2026-04-07 15:06 | 40.09491 | 52.66559 | 38793 ft | 546 kts | 103° |
| 2026-04-07 15:06 | 40.08730 | 52.71422 | 38908 ft | 546 kts | 104° |
| 2026-04-07 15:07 | 40.07965 | 52.76285 | 38947 ft | 547 kts | 104° |
| 2026-04-07 15:07 | 40.06431 | 52.86012 | 38962 ft | 548 kts | 104° |
| 2026-04-07 15:08 | 40.05046 | 52.95796 | 38966 ft | 550 kts | 96° |
| 2026-04-07 15:08 | 40.05595 | 53.05722 | 38966 ft | 551 kts | 74° |
| 2026-04-07 15:09 | 40.08049 | 53.15188 | 38950 ft | 550 kts | 68° |
| 2026-04-07 15:09 | 40.10825 | 53.24489 | 38947 ft | 549 kts | 67° |
| 2026-04-07 15:10 | 40.13611 | 53.33778 | 38946 ft | 549 kts | 68° |
| 2026-04-07 15:10 | 40.16355 | 53.43099 | 38944 ft | 549 kts | 68° |
| 2026-04-07 15:11 | 40.19065 | 53.52424 | 38944 ft | 548 kts | 68° |
| 2026-04-07 15:11 | 40.21762 | 53.61753 | 38947 ft | 548 kts | 68° |
| 2026-04-07 15:12 | 40.24433 | 53.71020 | 38952 ft | 548 kts | 68° |
| 2026-04-07 15:12 | 40.27111 | 53.80342 | 38952 ft | 547 kts | 68° |
| 2026-04-07 15:13 | 40.29782 | 53.89670 | 38952 ft | 546 kts | 68° |
| 2026-04-07 15:13 | 40.32443 | 53.98997 | 38953 ft | 546 kts | 68° |
| 2026-04-07 15:14 | 40.35095 | 54.08327 | 38957 ft | 546 kts | 69° |
| 2026-04-07 15:14 | 40.37741 | 54.17667 | 38956 ft | 547 kts | 68° |
| 2026-04-07 15:15 | 40.40386 | 54.27037 | 38961 ft | 547 kts | 69° |
| 2026-04-07 15:15 | 40.43016 | 54.36393 | 38961 ft | 546 kts | 69° |
| 2026-04-07 15:16 | 40.45638 | 54.45750 | 38960 ft | 546 kts | 69° |
| 2026-04-07 15:16 | 40.48251 | 54.55112 | 38966 ft | 546 kts | 69° |
| 2026-04-07 15:17 | 40.50834 | 54.64403 | 38962 ft | 544 kts | 69° |
| 2026-04-07 15:17 | 40.53422 | 54.73742 | 38960 ft | 544 kts | 69° |
| 2026-04-07 15:18 | 40.56004 | 54.83093 | 38960 ft | 544 kts | 69° |
| 2026-04-07 15:18 | 40.58576 | 54.92443 | 38960 ft | 544 kts | 69° |
| 2026-04-07 15:19 | 40.61143 | 55.01810 | 38960 ft | 544 kts | 69° |
| 2026-04-07 15:19 | 40.63702 | 55.11183 | 38959 ft | 544 kts | 69° |
| 2026-04-07 15:20 | 40.66245 | 55.20532 | 38960 ft | 541 kts | 69° |
| 2026-04-07 15:20 | 40.68774 | 55.29863 | 38957 ft | 541 kts | 69° |
| 2026-04-07 15:21 | 40.71294 | 55.39199 | 38958 ft | 541 kts | 69° |
| 2026-04-07 15:21 | 40.73802 | 55.48520 | 38955 ft | 538 kts | 69° |
| 2026-04-07 15:22 | 40.76291 | 55.57811 | 38950 ft | 537 kts | 69° |
| 2026-04-07 15:22 | 40.78773 | 55.67106 | 38949 ft | 537 kts | 70° |
| 2026-04-07 15:23 | 40.81246 | 55.76401 | 38944 ft | 537 kts | 70° |
| 2026-04-07 15:23 | 40.83709 | 55.85697 | 38938 ft | 536 kts | 70° |
| 2026-04-07 15:24 | 40.86164 | 55.94996 | 38936 ft | 536 kts | 70° |
| 2026-04-07 15:24 | 40.88611 | 56.04301 | 38933 ft | 535 kts | 70° |
| 2026-04-07 15:25 | 40.91044 | 56.13589 | 38933 ft | 535 kts | 70° |
| 2026-04-07 15:25 | 40.93469 | 56.22882 | 38930 ft | 534 kts | 70° |
| 2026-04-07 15:26 | 40.95870 | 56.32116 | 38930 ft | 534 kts | 70° |
| 2026-04-07 15:26 | 40.98274 | 56.41399 | 38928 ft | 533 kts | 70° |
| 2026-04-07 15:27 | 41.00524 | 56.50742 | 38928 ft | 533 kts | 77° |
| 2026-04-07 15:27 | 41.01877 | 56.60391 | 38927 ft | 533 kts | 81° |
| 2026-04-07 15:28 | 41.03037 | 56.70071 | 38925 ft | 532 kts | 81° |
| 2026-04-07 15:28 | 41.04161 | 56.79762 | 38924 ft | 532 kts | 81° |
| 2026-04-07 15:29 | 41.05288 | 56.89455 | 38925 ft | 532 kts | 81° |
| 2026-04-07 15:29 | 41.06417 | 56.99137 | 38924 ft | 531 kts | 81° |
| 2026-04-07 15:30 | 41.07537 | 57.08792 | 38919 ft | 530 kts | 81° |
| 2026-04-07 15:30 | 41.08649 | 57.18452 | 38923 ft | 530 kts | 81° |
| 2026-04-07 15:31 | 41.09752 | 57.28111 | 38923 ft | 530 kts | 82° |
| 2026-04-07 15:31 | 41.10845 | 57.37752 | 38914 ft | 528 kts | 82° |
| 2026-04-07 15:32 | 41.11926 | 57.47366 | 38914 ft | 527 kts | 82° |
| 2026-04-07 15:32 | 41.12999 | 57.56983 | 38913 ft | 527 kts | 82° |
| 2026-04-07 15:33 | 41.14064 | 57.66605 | 38910 ft | 527 kts | 82° |
| 2026-04-07 15:33 | 41.15118 | 57.76199 | 38911 ft | 526 kts | 82° |
| 2026-04-07 15:34 | 41.16156 | 57.85733 | 38911 ft | 525 kts | 82° |
| 2026-04-07 15:34 | 41.17194 | 57.95332 | 38908 ft | 526 kts | 82° |
| 2026-04-07 15:35 | 41.18225 | 58.04940 | 38909 ft | 526 kts | 82° |
| 2026-04-07 15:35 | 41.19250 | 58.14540 | 38906 ft | 525 kts | 82° |
| 2026-04-07 15:36 | 41.20265 | 58.24150 | 38906 ft | 525 kts | 82° |
| 2026-04-07 15:36 | 41.21270 | 58.33762 | 38908 ft | 524 kts | 82° |
| 2026-04-07 15:37 | 41.22263 | 58.43331 | 38908 ft | 522 kts | 83° |
| 2026-04-07 15:37 | 41.23248 | 58.52890 | 38905 ft | 522 kts | 83° |
| 2026-04-07 15:38 | 41.24225 | 58.62456 | 38902 ft | 524 kts | 83° |
| 2026-04-07 15:38 | 41.25197 | 58.72045 | 38905 ft | 523 kts | 83° |
| 2026-04-07 15:39 | 41.26159 | 58.81618 | 38904 ft | 522 kts | 83° |
| 2026-04-07 15:39 | 41.27112 | 58.91188 | 38900 ft | 522 kts | 83° |
| 2026-04-07 15:40 | 41.28057 | 59.00764 | 38904 ft | 522 kts | 83° |
| 2026-04-07 15:40 | 41.28993 | 59.10321 | 38898 ft | 520 kts | 83° |
| 2026-04-07 15:41 | 41.29919 | 59.19855 | 38896 ft | 520 kts | 83° |
| 2026-04-07 15:41 | 41.30836 | 59.29394 | 38895 ft | 520 kts | 83° |
| 2026-04-07 15:42 | 41.31745 | 59.38929 | 38894 ft | 519 kts | 83° |
| 2026-04-07 15:42 | 41.33085 | 59.53136 | 38881 ft | 518 kts | 83° |
| 2026-04-07 15:43 | 41.33974 | 59.62656 | 38892 ft | 519 kts | 84° |
| 2026-04-07 15:43 | 41.35648 | 59.71995 | 38887 ft | 519 kts | 73° |
| 2026-04-07 15:44 | 41.37819 | 59.81157 | 38889 ft | 519 kts | 72° |
| 2026-04-07 15:44 | 41.40064 | 59.90287 | 38884 ft | 519 kts | 72° |
| 2026-04-07 15:45 | 41.42297 | 59.99423 | 38884 ft | 519 kts | 72° |
| 2026-04-07 15:45 | 41.44508 | 60.08567 | 38883 ft | 518 kts | 72° |
| 2026-04-07 15:46 | 41.46699 | 60.17697 | 38883 ft | 517 kts | 72° |
| 2026-04-07 15:46 | 41.48877 | 60.26844 | 38881 ft | 517 kts | 73° |
| 2026-04-07 15:47 | 41.51027 | 60.36003 | 38881 ft | 517 kts | 73° |
| 2026-04-07 15:47 | 41.53165 | 60.45150 | 38878 ft | 516 kts | 73° |
| 2026-04-07 15:48 | 41.55300 | 60.54301 | 38878 ft | 516 kts | 73° |
| 2026-04-07 15:48 | 41.57416 | 60.63402 | 38874 ft | 516 kts | 73° |
| 2026-04-07 15:49 | 41.59631 | 60.72510 | 38879 ft | 516 kts | 71° |
| 2026-04-07 15:49 | 41.62048 | 60.81532 | 38878 ft | 515 kts | 70° |
| 2026-04-07 15:50 | 41.64465 | 60.90550 | 38881 ft | 515 kts | 71° |
| 2026-04-07 15:50 | 41.66836 | 60.99568 | 38881 ft | 514 kts | 71° |
| 2026-04-07 15:51 | 41.69186 | 61.08611 | 38881 ft | 514 kts | 71° |
| 2026-04-07 15:51 | 41.71522 | 61.17648 | 38884 ft | 514 kts | 71° |
| 2026-04-07 15:52 | 41.73851 | 61.26689 | 38884 ft | 514 kts | 71° |
| 2026-04-07 15:52 | 41.75779 | 61.34193 | 38881 ft | 514 kts | 71° |
| 2026-04-07 15:53 | 41.78101 | 61.43262 | 38881 ft | 514 kts | 71° |
| 2026-04-07 15:53 | 41.80412 | 61.52320 | 38878 ft | 514 kts | 72° |
| 2026-04-07 15:54 | 41.82714 | 61.61376 | 38881 ft | 513 kts | 72° |
| 2026-04-07 15:54 | 41.85009 | 61.70442 | 38884 ft | 513 kts | 72° |
| 2026-04-07 15:55 | 41.87296 | 61.79511 | 38886 ft | 513 kts | 72° |
| 2026-04-07 15:55 | 41.89575 | 61.88583 | 38886 ft | 513 kts | 72° |
| 2026-04-07 15:56 | 41.91845 | 61.97654 | 38886 ft | 512 kts | 72° |
| 2026-04-07 15:56 | 41.94106 | 62.06724 | 38883 ft | 512 kts | 72° |
| 2026-04-07 15:57 | 41.96362 | 62.15809 | 38885 ft | 512 kts | 72° |
| 2026-04-07 15:57 | 41.98609 | 62.24894 | 38887 ft | 512 kts | 72° |
| 2026-04-07 15:58 | 42.00848 | 62.33984 | 38884 ft | 512 kts | 72° |
| 2026-04-07 15:58 | 42.03083 | 62.43086 | 38884 ft | 512 kts | 72° |
| 2026-04-07 15:59 | 42.05308 | 62.52188 | 38886 ft | 512 kts | 73° |
| 2026-04-07 15:59 | 42.07527 | 62.61302 | 38887 ft | 512 kts | 73° |
| 2026-04-07 16:00 | 42.09738 | 62.70417 | 38889 ft | 512 kts | 73° |
| 2026-04-07 16:00 | 42.11941 | 62.79538 | 38888 ft | 512 kts | 73° |
| 2026-04-07 16:01 | 42.14133 | 62.88647 | 38890 ft | 511 kts | 73° |
| 2026-04-07 16:01 | 42.16315 | 62.97748 | 38889 ft | 511 kts | 73° |
| 2026-04-07 16:02 | 42.18489 | 63.06862 | 38887 ft | 510 kts | 73° |
| 2026-04-07 16:02 | 42.20662 | 63.15972 | 38895 ft | 510 kts | 73° |
| 2026-04-07 16:03 | 42.22813 | 63.25019 | 38898 ft | 510 kts | 73° |
| 2026-04-07 16:03 | 42.24971 | 63.34138 | 38898 ft | 510 kts | 73° |
| 2026-04-07 16:04 | 42.27120 | 63.43265 | 38894 ft | 510 kts | 73° |
| 2026-04-07 16:04 | 42.29262 | 63.52395 | 38905 ft | 510 kts | 73° |
| 2026-04-07 16:05 | 42.31400 | 63.61548 | 38896 ft | 511 kts | 73° |
| 2026-04-07 16:05 | 42.33530 | 63.70701 | 38895 ft | 510 kts | 73° |
| 2026-04-07 16:06 | 42.35649 | 63.79847 | 38907 ft | 510 kts | 73° |
| 2026-04-07 16:06 | 42.37761 | 63.88997 | 38896 ft | 510 kts | 74° |
| 2026-04-07 16:07 | 42.39865 | 63.98152 | 38911 ft | 510 kts | 74° |
| 2026-04-07 16:07 | 42.41951 | 64.07307 | 38908 ft | 508 kts | 74° |
| 2026-04-07 16:08 | 42.43984 | 64.16384 | 38906 ft | 507 kts | 74° |
| 2026-04-07 16:08 | 42.46023 | 64.25515 | 38906 ft | 507 kts | 74° |
| 2026-04-07 16:09 | 42.48077 | 64.34646 | 38914 ft | 507 kts | 74° |
| 2026-04-07 16:09 | 42.50128 | 64.43780 | 38908 ft | 507 kts | 74° |
| 2026-04-07 16:10 | 42.52170 | 64.52920 | 38906 ft | 507 kts | 74° |
| 2026-04-07 16:10 | 42.54205 | 64.62068 | 38914 ft | 507 kts | 74° |
| 2026-04-07 16:11 | 42.56228 | 64.71201 | 38909 ft | 505 kts | 75° |
| 2026-04-07 16:11 | 42.58237 | 64.80311 | 38918 ft | 504 kts | 75° |
| 2026-04-07 16:12 | 42.60236 | 64.89419 | 38909 ft | 503 kts | 75° |
| 2026-04-07 16:12 | 42.62228 | 64.98531 | 38907 ft | 503 kts | 75° |
| 2026-04-07 16:13 | 42.64212 | 65.07646 | 38912 ft | 503 kts | 75° |
| 2026-04-07 16:13 | 42.66192 | 65.16776 | 38907 ft | 503 kts | 75° |
| 2026-04-07 16:14 | 42.68161 | 65.25899 | 38914 ft | 503 kts | 75° |
| 2026-04-07 16:14 | 42.70124 | 65.35035 | 38909 ft | 503 kts | 75° |
| 2026-04-07 16:15 | 42.72078 | 65.44166 | 38910 ft | 503 kts | 75° |
| 2026-04-07 16:15 | 42.74025 | 65.53304 | 38910 ft | 503 kts | 75° |
| 2026-04-07 16:16 | 42.75964 | 65.62446 | 38906 ft | 503 kts | 75° |
| 2026-04-07 16:16 | 42.77881 | 65.71521 | 38906 ft | 502 kts | 75° |
| 2026-04-07 16:17 | 42.79801 | 65.80650 | 38897 ft | 502 kts | 75° |
| 2026-04-07 16:17 | 42.81714 | 65.89791 | 38900 ft | 502 kts | 76° |
| 2026-04-07 16:18 | 42.83621 | 65.98940 | 38894 ft | 502 kts | 76° |
| 2026-04-07 16:18 | 42.85522 | 66.08099 | 38893 ft | 502 kts | 76° |
| 2026-04-07 16:19 | 42.87411 | 66.17262 | 38892 ft | 502 kts | 76° |
| 2026-04-07 16:19 | 42.89287 | 66.26434 | 38880 ft | 502 kts | 76° |
| 2026-04-07 16:20 | 42.91159 | 66.35631 | 38886 ft | 504 kts | 76° |
| 2026-04-07 16:20 | 42.93027 | 66.44843 | 38886 ft | 504 kts | 76° |
| 2026-04-07 16:21 | 42.94887 | 66.54058 | 38884 ft | 504 kts | 76° |
| 2026-04-07 16:21 | 42.96743 | 66.63287 | 38875 ft | 504 kts | 77° |
| 2026-04-07 16:22 | 42.98592 | 66.72528 | 38878 ft | 505 kts | 77° |
| 2026-04-07 16:22 | 43.00432 | 66.81778 | 38876 ft | 505 kts | 77° |
| 2026-04-07 16:23 | 43.02264 | 66.91030 | 38872 ft | 505 kts | 77° |
| 2026-04-07 16:23 | 43.04091 | 67.00290 | 38869 ft | 505 kts | 77° |
| 2026-04-07 16:24 | 43.05912 | 67.09570 | 38867 ft | 505 kts | 77° |
| 2026-04-07 16:24 | 43.07726 | 67.18854 | 38862 ft | 505 kts | 77° |
| 2026-04-07 16:25 | 43.09531 | 67.28143 | 38857 ft | 505 kts | 78° |
| 2026-04-07 16:25 | 43.11331 | 67.37442 | 38860 ft | 505 kts | 78° |
| 2026-04-07 16:26 | 43.13123 | 67.46743 | 38851 ft | 505 kts | 78° |
| 2026-04-07 16:26 | 43.14901 | 67.55992 | 38846 ft | 505 kts | 78° |
| 2026-04-07 16:27 | 43.16677 | 67.65303 | 38846 ft | 505 kts | 78° |
| 2026-04-07 16:27 | 43.18446 | 67.74620 | 38844 ft | 505 kts | 78° |
| 2026-04-07 16:28 | 43.20213 | 67.83941 | 38842 ft | 505 kts | 78° |
| 2026-04-07 16:28 | 43.21967 | 67.93269 | 38829 ft | 505 kts | 78° |
| 2026-04-07 16:29 | 43.23710 | 68.02600 | 38832 ft | 505 kts | 78° |
| 2026-04-07 16:29 | 43.25447 | 68.11938 | 38829 ft | 505 kts | 78° |
| 2026-04-07 16:30 | 43.27179 | 68.21284 | 38824 ft | 505 kts | 78° |
| 2026-04-07 16:30 | 43.28903 | 68.30636 | 38821 ft | 506 kts | 79° |
| 2026-04-07 16:31 | 43.30587 | 68.40002 | 38814 ft | 505 kts | 81° |
| 2026-04-07 16:31 | 43.31762 | 68.49476 | 38807 ft | 503 kts | 85° |
| 2026-04-07 16:32 | 43.32765 | 68.58965 | 38819 ft | 502 kts | 85° |
| 2026-04-07 16:32 | 43.33611 | 68.68461 | 38814 ft | 501 kts | 87° |
| 2026-04-07 16:33 | 43.34343 | 68.77982 | 38816 ft | 501 kts | 87° |
| 2026-04-07 16:33 | 43.35106 | 68.87487 | 38815 ft | 501 kts | 86° |
| 2026-04-07 16:34 | 43.35899 | 68.97017 | 38814 ft | 501 kts | 86° |
| 2026-04-07 16:34 | 43.36694 | 69.06536 | 38815 ft | 501 kts | 86° |
| 2026-04-07 16:35 | 43.37479 | 69.16053 | 38815 ft | 501 kts | 86° |
| 2026-04-07 16:35 | 43.38282 | 69.25572 | 38818 ft | 501 kts | 86° |
| 2026-04-07 16:36 | 43.39114 | 69.35083 | 38807 ft | 501 kts | 86° |
| 2026-04-07 16:36 | 43.39939 | 69.44596 | 38819 ft | 501 kts | 86° |
| 2026-04-07 16:37 | 43.40747 | 69.54103 | 38813 ft | 500 kts | 86° |
| 2026-04-07 16:37 | 43.41540 | 69.63546 | 38813 ft | 500 kts | 86° |
| 2026-04-07 16:38 | 43.42334 | 69.73114 | 38814 ft | 500 kts | 86° |
| 2026-04-07 16:38 | 43.43127 | 69.82535 | 38809 ft | 499 kts | 86° |
| 2026-04-07 16:39 | 43.43941 | 69.92018 | 38801 ft | 499 kts | 86° |
| 2026-04-07 16:39 | 43.44747 | 70.01492 | 38807 ft | 499 kts | 86° |
| 2026-04-07 16:40 | 43.45541 | 70.10978 | 38797 ft | 499 kts | 86° |
| 2026-04-07 16:40 | 43.46194 | 70.18862 | 38799 ft | 499 kts | 86° |
| 2026-04-07 16:41 | 43.46974 | 70.28353 | 38796 ft | 499 kts | 86° |
| 2026-04-07 16:41 | 43.47745 | 70.37847 | 38794 ft | 499 kts | 86° |
| 2026-04-07 16:42 | 43.48509 | 70.47341 | 38793 ft | 499 kts | 86° |
| 2026-04-07 16:42 | 43.49266 | 70.56855 | 38790 ft | 500 kts | 86° |
| 2026-04-07 16:43 | 43.50015 | 70.66371 | 38787 ft | 500 kts | 86° |
| 2026-04-07 16:43 | 43.50755 | 70.75886 | 38789 ft | 500 kts | 86° |
| 2026-04-07 16:44 | 43.51488 | 70.85408 | 38789 ft | 501 kts | 86° |
| 2026-04-07 16:44 | 43.52215 | 70.94953 | 38787 ft | 501 kts | 86° |
| 2026-04-07 16:45 | 43.52920 | 71.04508 | 38791 ft | 501 kts | 86° |
| 2026-04-07 16:45 | 43.53616 | 71.14063 | 38788 ft | 501 kts | 86° |
| 2026-04-07 16:46 | 43.54307 | 71.23616 | 38785 ft | 501 kts | 86° |
| 2026-04-07 16:46 | 43.54993 | 71.33178 | 38784 ft | 501 kts | 86° |
| 2026-04-07 16:47 | 43.55669 | 71.42737 | 38784 ft | 501 kts | 87° |
| 2026-04-07 16:47 | 43.56338 | 71.52290 | 38775 ft | 501 kts | 86° |
| 2026-04-07 16:48 | 43.56998 | 71.61828 | 38785 ft | 498 kts | 87° |
| 2026-04-07 16:49 | 43.57965 | 71.76053 | 38785 ft | 497 kts | 87° |
| 2026-04-07 16:49 | 43.58596 | 71.85475 | 38783 ft | 497 kts | 87° |
| 2026-04-07 16:50 | 43.59224 | 71.94968 | 38781 ft | 497 kts | 87° |
| 2026-04-07 16:50 | 43.59845 | 72.04477 | 38785 ft | 498 kts | 87° |
| 2026-04-07 16:51 | 43.60459 | 72.13993 | 38775 ft | 498 kts | 87° |
| 2026-04-07 16:51 | 43.61064 | 72.23510 | 38779 ft | 498 kts | 87° |
| 2026-04-07 16:52 | 43.61662 | 72.33032 | 38776 ft | 499 kts | 87° |
| 2026-04-07 16:52 | 43.62253 | 72.42568 | 38772 ft | 499 kts | 87° |
| 2026-04-07 16:53 | 43.62836 | 72.52110 | 38770 ft | 499 kts | 87° |
| 2026-04-07 16:53 | 43.63411 | 72.61652 | 38765 ft | 499 kts | 86° |
| 2026-04-07 16:54 | 43.63978 | 72.71196 | 38771 ft | 499 kts | 87° |
| 2026-04-07 16:54 | 43.64537 | 72.80741 | 38776 ft | 499 kts | 87° |
| 2026-04-07 16:55 | 43.65088 | 72.90277 | 38770 ft | 499 kts | 87° |
| 2026-04-07 16:55 | 43.65630 | 72.99820 | 38763 ft | 498 kts | 86° |
| 2026-04-07 16:56 | 43.66165 | 73.09356 | 38768 ft | 498 kts | 86° |
| 2026-04-07 16:56 | 43.66691 | 73.18892 | 38759 ft | 498 kts | 87° |
| 2026-04-07 16:57 | 43.67210 | 73.28430 | 38756 ft | 498 kts | 87° |
| 2026-04-07 16:57 | 43.67719 | 73.37956 | 38757 ft | 496 kts | 86° |
| 2026-04-07 16:58 | 43.68220 | 73.47458 | 38757 ft | 496 kts | 86° |
| 2026-04-07 16:58 | 43.68713 | 73.56956 | 38759 ft | 496 kts | 87° |
| 2026-04-07 16:59 | 43.69197 | 73.66451 | 38746 ft | 496 kts | 86° |
| 2026-04-07 16:59 | 43.69528 | 73.75964 | 38761 ft | 496 kts | 92° |
| 2026-04-07 17:00 | 43.69348 | 73.85479 | 38757 ft | 495 kts | 93° |
| 2026-04-07 17:00 | 43.69074 | 73.94992 | 38758 ft | 495 kts | 93° |
| 2026-04-07 17:01 | 43.68784 | 74.04443 | 38749 ft | 496 kts | 93° |
| 2026-04-07 17:01 | 43.68490 | 74.14026 | 38757 ft | 496 kts | 93° |
| 2026-04-07 17:02 | 43.68202 | 74.23476 | 38759 ft | 495 kts | 93° |
| 2026-04-07 17:02 | 43.67913 | 74.33050 | 38759 ft | 495 kts | 93° |
| 2026-04-07 17:03 | 43.67618 | 74.42491 | 38764 ft | 496 kts | 93° |
| 2026-04-07 17:03 | 43.67313 | 74.52015 | 38770 ft | 496 kts | 93° |
| 2026-04-07 17:04 | 43.67000 | 74.61539 | 38768 ft | 496 kts | 93° |
| 2026-04-07 17:04 | 43.66680 | 74.71057 | 38773 ft | 496 kts | 93° |
| 2026-04-07 17:05 | 43.66351 | 74.80577 | 38776 ft | 496 kts | 93° |
| 2026-04-07 17:05 | 43.66014 | 74.90090 | 38778 ft | 496 kts | 93° |
| 2026-04-07 17:06 | 43.65670 | 74.99609 | 38776 ft | 496 kts | 93° |
| 2026-04-07 17:06 | 43.65317 | 75.09122 | 38773 ft | 496 kts | 93° |
| 2026-04-07 17:07 | 43.64956 | 75.18654 | 38774 ft | 497 kts | 93° |
| 2026-04-07 17:07 | 43.64588 | 75.28175 | 38772 ft | 496 kts | 93° |
| 2026-04-07 17:08 | 43.64212 | 75.37684 | 38769 ft | 496 kts | 93° |
| 2026-04-07 17:08 | 43.63828 | 75.47191 | 38772 ft | 496 kts | 93° |
| 2026-04-07 17:09 | 43.63437 | 75.56702 | 38768 ft | 496 kts | 93° |
| 2026-04-07 17:09 | 43.63036 | 75.66212 | 38763 ft | 496 kts | 93° |
| 2026-04-07 17:10 | 43.62624 | 75.75719 | 38763 ft | 496 kts | 93° |
| 2026-04-07 17:10 | 43.62205 | 75.85228 | 38758 ft | 497 kts | 92° |
| 2026-04-07 17:11 | 43.61778 | 75.94751 | 38755 ft | 497 kts | 93° |
| 2026-04-07 17:11 | 43.61345 | 76.04260 | 38752 ft | 497 kts | 93° |
| 2026-04-07 17:12 | 43.60905 | 76.13716 | 38750 ft | 497 kts | 93° |
| 2026-04-07 17:12 | 43.60455 | 76.23246 | 38747 ft | 498 kts | 93° |
| 2026-04-07 17:13 | 43.59996 | 76.32786 | 38748 ft | 499 kts | 93° |
| 2026-04-07 17:13 | 43.59796 | 76.42328 | 38741 ft | 497 kts | 89° |
| 2026-04-07 17:14 | 43.59847 | 76.51855 | 38740 ft | 496 kts | 88° |
| 2026-04-07 17:14 | 43.59868 | 76.61397 | 38739 ft | 498 kts | 89° |
| 2026-04-07 17:15 | 43.59830 | 76.70952 | 38733 ft | 498 kts | 89° |
| 2026-04-07 17:15 | 43.59764 | 76.80514 | 38728 ft | 498 kts | 89° |
| 2026-04-07 17:16 | 43.59677 | 76.90079 | 38728 ft | 499 kts | 89° |
| 2026-04-07 17:16 | 43.59583 | 76.99646 | 38720 ft | 499 kts | 89° |
| 2026-04-07 17:17 | 43.59489 | 77.09229 | 38714 ft | 499 kts | 89° |
| 2026-04-07 17:17 | 43.59384 | 77.18808 | 38725 ft | 500 kts | 90° |
| 2026-04-07 17:18 | 43.59088 | 77.28388 | 38726 ft | 500 kts | 91° |
| 2026-04-07 17:18 | 43.58709 | 77.37973 | 38716 ft | 500 kts | 91° |
| 2026-04-07 17:19 | 43.58346 | 77.47554 | 38712 ft | 500 kts | 91° |
| 2026-04-07 17:19 | 43.58059 | 77.57146 | 38711 ft | 500 kts | 89° |
| 2026-04-07 17:20 | 43.57969 | 77.66665 | 38707 ft | 500 kts | 89° |
| 2026-04-07 17:20 | 43.57890 | 77.76251 | 38708 ft | 500 kts | 89° |
| 2026-04-07 17:21 | 43.57773 | 77.85838 | 38706 ft | 500 kts | 89° |
| 2026-04-07 17:21 | 43.57630 | 77.95420 | 38712 ft | 499 kts | 89° |
| 2026-04-07 17:22 | 43.57476 | 78.04993 | 38698 ft | 499 kts | 89° |
| 2026-04-07 17:22 | 43.57313 | 78.14572 | 38706 ft | 500 kts | 89° |
| 2026-04-07 17:23 | 43.57149 | 78.24151 | 38708 ft | 500 kts | 90° |
| 2026-04-07 17:23 | 43.56977 | 78.33727 | 38704 ft | 500 kts | 90° |
| 2026-04-07 17:24 | 43.56796 | 78.43299 | 38690 ft | 500 kts | 90° |
| 2026-04-07 17:24 | 43.56607 | 78.52869 | 38710 ft | 499 kts | 90° |
| 2026-04-07 17:25 | 43.56410 | 78.62438 | 38711 ft | 499 kts | 90° |
| 2026-04-07 17:25 | 43.56206 | 78.72010 | 38705 ft | 499 kts | 90° |
| 2026-04-07 17:26 | 43.55992 | 78.81584 | 38703 ft | 500 kts | 90° |
| 2026-04-07 17:26 | 43.55770 | 78.91156 | 38703 ft | 499 kts | 90° |
| 2026-04-07 17:27 | 43.55540 | 79.00719 | 38688 ft | 499 kts | 90° |
| 2026-04-07 17:27 | 43.55344 | 79.08671 | 38690 ft | 499 kts | 90° |
| 2026-04-07 17:28 | 43.55100 | 79.18227 | 38695 ft | 498 kts | 90° |
| 2026-04-07 17:28 | 43.54811 | 79.29308 | 38687 ft | 498 kts | 90° |
| 2026-04-07 17:29 | 43.54594 | 79.37308 | 38691 ft | 498 kts | 90° |
| 2026-04-07 17:29 | 43.54324 | 79.46847 | 38692 ft | 498 kts | 91° |
| 2026-04-07 17:30 | 43.54047 | 79.56372 | 38697 ft | 497 kts | 91° |
| 2026-04-07 17:30 | 43.53764 | 79.65884 | 38697 ft | 497 kts | 91° |
| 2026-04-07 17:31 | 43.53474 | 79.75400 | 38693 ft | 497 kts | 91° |
| 2026-04-07 17:31 | 43.53180 | 79.84919 | 38700 ft | 497 kts | 91° |
| 2026-04-07 17:32 | 43.52877 | 79.94366 | 38699 ft | 497 kts | 91° |
| 2026-04-07 17:32 | 43.52561 | 80.03875 | 38705 ft | 497 kts | 91° |
| 2026-04-07 17:33 | 43.52238 | 80.13387 | 38698 ft | 497 kts | 91° |
| 2026-04-07 17:33 | 43.51909 | 80.22902 | 38702 ft | 497 kts | 91° |
| 2026-04-07 17:34 | 43.51572 | 80.32413 | 38702 ft | 497 kts | 91° |
| 2026-04-07 17:34 | 43.51227 | 80.41931 | 38697 ft | 497 kts | 91° |
| 2026-04-07 17:35 | 43.50874 | 80.51451 | 38719 ft | 497 kts | 92° |
| 2026-04-07 17:35 | 43.50513 | 80.60967 | 38713 ft | 498 kts | 92° |
| 2026-04-07 17:36 | 43.50144 | 80.70493 | 38718 ft | 498 kts | 92° |
| 2026-04-07 17:36 | 43.49839 | 80.80029 | 38718 ft | 498 kts | 90° |
| 2026-04-07 17:37 | 43.49725 | 80.89557 | 38718 ft | 498 kts | 90° |
| 2026-04-07 17:37 | 43.49618 | 80.99099 | 38714 ft | 499 kts | 90° |
| 2026-04-07 17:38 | 43.49473 | 81.08645 | 38711 ft | 499 kts | 90° |
| 2026-04-07 17:38 | 43.49303 | 81.18198 | 38715 ft | 499 kts | 90° |
| 2026-04-07 17:39 | 43.49121 | 81.27759 | 38715 ft | 500 kts | 90° |
| 2026-04-07 17:39 | 43.48933 | 81.37340 | 38709 ft | 501 kts | 90° |
| 2026-04-07 17:40 | 43.48737 | 81.46945 | 38710 ft | 502 kts | 91° |
| 2026-04-07 17:40 | 43.48533 | 81.56551 | 38702 ft | 502 kts | 91° |
| 2026-04-07 17:41 | 43.48321 | 81.66141 | 38699 ft | 502 kts | 91° |
| 2026-04-07 17:41 | 43.48100 | 81.75762 | 38696 ft | 503 kts | 91° |
| 2026-04-07 17:42 | 43.47873 | 81.85394 | 38693 ft | 503 kts | 91° |
| 2026-04-07 17:42 | 43.47636 | 81.95016 | 38691 ft | 503 kts | 91° |
| 2026-04-07 17:43 | 43.47391 | 82.04644 | 38699 ft | 503 kts | 91° |
| 2026-04-07 17:43 | 43.47138 | 82.14268 | 38699 ft | 503 kts | 91° |
| 2026-04-07 17:44 | 43.46877 | 82.23894 | 38700 ft | 503 kts | 91° |
| 2026-04-07 17:44 | 43.46609 | 82.33458 | 38700 ft | 503 kts | 91° |
| 2026-04-07 17:45 | 43.46333 | 82.43079 | 38698 ft | 503 kts | 91° |
| 2026-04-07 17:45 | 43.46047 | 82.52713 | 38698 ft | 504 kts | 91° |
| 2026-04-07 17:46 | 43.45753 | 82.62347 | 38703 ft | 504 kts | 91° |
| 2026-04-07 17:46 | 43.45451 | 82.71989 | 38701 ft | 504 kts | 91° |
| 2026-04-07 17:47 | 43.45142 | 82.81622 | 38704 ft | 504 kts | 92° |
| 2026-04-07 17:47 | 43.44824 | 82.91257 | 38714 ft | 504 kts | 92° |
| 2026-04-07 17:48 | 43.44497 | 83.00898 | 38718 ft | 504 kts | 92° |
| 2026-04-07 17:48 | 43.44163 | 83.10542 | 38720 ft | 504 kts | 92° |
| 2026-04-07 17:49 | 43.43820 | 83.20178 | 38729 ft | 505 kts | 92° |
| 2026-04-07 17:49 | 43.43469 | 83.29824 | 38718 ft | 505 kts | 92° |
| 2026-04-07 17:50 | 43.43109 | 83.39469 | 38733 ft | 505 kts | 92° |
| 2026-04-07 17:50 | 43.42416 | 83.49084 | 38745 ft | 505 kts | 97° |
| 2026-04-07 17:51 | 43.41504 | 83.58667 | 38744 ft | 506 kts | 97° |
| 2026-04-07 17:51 | 43.40622 | 83.68270 | 38760 ft | 506 kts | 96° |
| 2026-04-07 17:52 | 43.39783 | 83.77878 | 38774 ft | 506 kts | 96° |
| 2026-04-07 17:52 | 43.38954 | 83.87486 | 38771 ft | 506 kts | 96° |
| 2026-04-07 17:53 | 43.38117 | 83.97095 | 38785 ft | 507 kts | 96° |
| 2026-04-07 17:53 | 43.36842 | 84.11516 | 38796 ft | 507 kts | 96° |
| 2026-04-07 17:54 | 43.35980 | 84.21133 | 38794 ft | 507 kts | 97° |
| 2026-04-07 17:54 | 43.35109 | 84.30746 | 38804 ft | 507 kts | 97° |
| 2026-04-07 17:55 | 43.34239 | 84.40298 | 38819 ft | 508 kts | 97° |
| 2026-04-07 17:55 | 43.33331 | 84.49923 | 38886 ft | 509 kts | 97° |
| 2026-04-07 17:56 | 43.32868 | 84.54742 | 39072 ft | 509 kts | 97° |
| 2026-04-07 17:56 | 43.32404 | 84.59555 | 39273 ft | 508 kts | 97° |
| 2026-04-07 17:56 | 43.31939 | 84.64368 | 39439 ft | 508 kts | 97° |
| 2026-04-07 17:56 | 43.31473 | 84.69181 | 39622 ft | 509 kts | 97° |
| 2026-04-07 17:57 | 43.31005 | 84.74001 | 39745 ft | 510 kts | 97° |
| 2026-04-07 17:57 | 43.30535 | 84.78826 | 39888 ft | 510 kts | 97° |
| 2026-04-07 17:57 | 43.30064 | 84.83644 | 40052 ft | 509 kts | 97° |
| 2026-04-07 17:57 | 43.29591 | 84.88463 | 40174 ft | 510 kts | 97° |
| 2026-04-07 17:58 | 43.29115 | 84.93285 | 40337 ft | 510 kts | 97° |
| 2026-04-07 17:58 | 43.28637 | 84.98111 | 40482 ft | 510 kts | 97° |
| 2026-04-07 17:58 | 43.28157 | 85.02936 | 40625 ft | 510 kts | 97° |
| 2026-04-07 17:58 | 43.27675 | 85.07767 | 40752 ft | 511 kts | 97° |
| 2026-04-07 17:59 | 43.26702 | 85.17447 | 40872 ft | 513 kts | 97° |
| 2026-04-07 17:59 | 43.25719 | 85.27127 | 40874 ft | 512 kts | 98° |
| 2026-04-07 18:00 | 43.24728 | 85.36799 | 40879 ft | 512 kts | 98° |
| 2026-04-07 18:00 | 43.23730 | 85.46477 | 40883 ft | 512 kts | 98° |
| 2026-04-07 18:01 | 43.22723 | 85.56157 | 40884 ft | 513 kts | 98° |
| 2026-04-07 18:01 | 43.21707 | 85.65842 | 40889 ft | 513 kts | 98° |
| 2026-04-07 18:02 | 43.20683 | 85.75527 | 40903 ft | 513 kts | 98° |
| 2026-04-07 18:02 | 43.19650 | 85.85203 | 40900 ft | 513 kts | 98° |
| 2026-04-07 18:03 | 43.19574 | 85.94938 | 40895 ft | 511 kts | 80° |
| 2026-04-07 18:03 | 43.21741 | 86.04117 | 40906 ft | 506 kts | 59° |
| 2026-04-07 18:04 | 43.25428 | 86.12322 | 40905 ft | 505 kts | 54° |
| 2026-04-07 18:04 | 43.29340 | 86.20326 | 40900 ft | 505 kts | 54° |
| 2026-04-07 18:05 | 43.33280 | 86.28314 | 40903 ft | 506 kts | 53° |
| 2026-04-07 18:05 | 43.37207 | 86.36330 | 40896 ft | 506 kts | 54° |
| 2026-04-07 18:06 | 43.41093 | 86.44335 | 40898 ft | 507 kts | 54° |
| 2026-04-07 18:06 | 43.45010 | 86.52391 | 40888 ft | 506 kts | 54° |
| 2026-04-07 18:07 | 43.48930 | 86.60452 | 40882 ft | 507 kts | 54° |
| 2026-04-07 18:07 | 43.52853 | 86.68527 | 40867 ft | 507 kts | 54° |
| 2026-04-07 18:08 | 43.56761 | 86.76631 | 40862 ft | 508 kts | 54° |
| 2026-04-07 18:08 | 43.60617 | 86.84799 | 40857 ft | 508 kts | 54° |
| 2026-04-07 18:09 | 43.64464 | 86.92981 | 40851 ft | 508 kts | 54° |
| 2026-04-07 18:09 | 43.68306 | 87.01158 | 40848 ft | 508 kts | 54° |
| 2026-04-07 18:10 | 43.72150 | 87.09346 | 40840 ft | 508 kts | 54° |
| 2026-04-07 18:10 | 43.75993 | 87.17548 | 40839 ft | 508 kts | 54° |
| 2026-04-07 18:11 | 43.79830 | 87.25766 | 40840 ft | 508 kts | 54° |
| 2026-04-07 18:11 | 43.83657 | 87.33985 | 40830 ft | 508 kts | 54° |
| 2026-04-07 18:12 | 43.87479 | 87.42219 | 40829 ft | 508 kts | 54° |
| 2026-04-07 18:12 | 43.91295 | 87.50461 | 40829 ft | 508 kts | 54° |
| 2026-04-07 18:13 | 43.95353 | 87.58458 | 40829 ft | 506 kts | 50° |
| 2026-04-07 18:13 | 43.99699 | 87.66126 | 40825 ft | 506 kts | 49° |
| 2026-04-07 18:14 | 44.03304 | 87.72528 | 40829 ft | 506 kts | 49° |
| 2026-04-07 18:14 | 44.07580 | 87.80291 | 40819 ft | 506 kts | 50° |
| 2026-04-07 18:15 | 44.12508 | 87.89371 | 40818 ft | 506 kts | 50° |
| 2026-04-07 18:15 | 44.15869 | 87.96124 | 40816 ft | 509 kts | 58° |
| 2026-04-07 18:16 | 44.18379 | 88.05357 | 40822 ft | 514 kts | 74° |
| 2026-04-07 18:16 | 44.19951 | 88.15089 | 40822 ft | 515 kts | 76° |
| 2026-04-07 18:17 | 44.21354 | 88.24825 | 40834 ft | 516 kts | 77° |
| 2026-04-07 18:17 | 44.22764 | 88.34629 | 40821 ft | 516 kts | 77° |
| 2026-04-07 18:18 | 44.24202 | 88.44496 | 40821 ft | 516 kts | 76° |
| 2026-04-07 18:18 | 44.25625 | 88.54235 | 40826 ft | 516 kts | 76° |
| 2026-04-07 18:19 | 44.27051 | 88.64049 | 40826 ft | 516 kts | 76° |
| 2026-04-07 18:19 | 44.28467 | 88.73867 | 40824 ft | 516 kts | 77° |
| 2026-04-07 18:20 | 44.29875 | 88.83696 | 40819 ft | 516 kts | 77° |
| 2026-04-07 18:20 | 44.31274 | 88.93523 | 40817 ft | 516 kts | 77° |
| 2026-04-07 18:21 | 44.32666 | 89.03369 | 40820 ft | 517 kts | 77° |
| 2026-04-07 18:21 | 44.34049 | 89.13212 | 40815 ft | 517 kts | 77° |
| 2026-04-07 18:22 | 44.35424 | 89.23066 | 40817 ft | 517 kts | 77° |
| 2026-04-07 18:22 | 44.36791 | 89.32926 | 40811 ft | 517 kts | 77° |
| 2026-04-07 18:23 | 44.38151 | 89.42802 | 40807 ft | 517 kts | 77° |
| 2026-04-07 18:23 | 44.39502 | 89.52676 | 40810 ft | 517 kts | 77° |
| 2026-04-07 18:24 | 44.40818 | 89.62563 | 40805 ft | 518 kts | 80° |
| 2026-04-07 18:24 | 44.40809 | 89.72617 | 40809 ft | 520 kts | 99° |
| 2026-04-07 18:25 | 44.39043 | 89.82363 | 40804 ft | 521 kts | 106° |
| 2026-04-07 18:25 | 44.36916 | 89.92050 | 40812 ft | 522 kts | 107° |
| 2026-04-07 18:26 | 44.34750 | 90.01724 | 40809 ft | 522 kts | 107° |
| 2026-04-07 18:26 | 44.32604 | 90.11414 | 40811 ft | 522 kts | 107° |
| 2026-04-07 18:27 | 44.30470 | 90.21106 | 40808 ft | 522 kts | 107° |
| 2026-04-07 18:27 | 44.28330 | 90.30799 | 40813 ft | 522 kts | 107° |
| 2026-04-07 18:28 | 44.26181 | 90.40482 | 40815 ft | 523 kts | 107° |
| 2026-04-07 18:28 | 44.24021 | 90.50170 | 40806 ft | 523 kts | 107° |
| 2026-04-07 18:29 | 44.21853 | 90.59847 | 40806 ft | 523 kts | 107° |
| 2026-04-07 18:29 | 44.19674 | 90.69530 | 40808 ft | 523 kts | 107° |
| 2026-04-07 18:30 | 44.17488 | 90.79198 | 40807 ft | 523 kts | 108° |
| 2026-04-07 18:30 | 44.15294 | 90.88859 | 40808 ft | 524 kts | 108° |
| 2026-04-07 18:31 | 44.13089 | 90.98526 | 40809 ft | 524 kts | 108° |
| 2026-04-07 18:31 | 44.10878 | 91.08183 | 40808 ft | 524 kts | 108° |
| 2026-04-07 18:32 | 44.08659 | 91.17835 | 40808 ft | 524 kts | 108° |
| 2026-04-07 18:32 | 44.06430 | 91.27486 | 40808 ft | 524 kts | 108° |
| 2026-04-07 18:33 | 44.04194 | 91.37128 | 40812 ft | 524 kts | 108° |
| 2026-04-07 18:33 | 44.01949 | 91.46773 | 40805 ft | 524 kts | 108° |
| 2026-04-07 18:34 | 43.99676 | 91.56395 | 40810 ft | 525 kts | 108° |
| 2026-04-07 18:34 | 43.97384 | 91.66016 | 40813 ft | 526 kts | 108° |
| 2026-04-07 18:35 | 43.95098 | 91.75594 | 40807 ft | 526 kts | 108° |
| 2026-04-07 18:35 | 43.92794 | 91.85219 | 40814 ft | 526 kts | 109° |
| 2026-04-07 18:36 | 43.90483 | 91.94839 | 40817 ft | 526 kts | 109° |
| 2026-04-07 18:36 | 43.88161 | 92.04458 | 40807 ft | 526 kts | 109° |
| 2026-04-07 18:37 | 43.85833 | 92.14063 | 40810 ft | 526 kts | 109° |
| 2026-04-07 18:37 | 43.83496 | 92.23663 | 40810 ft | 526 kts | 109° |
| 2026-04-07 18:38 | 43.81150 | 92.33262 | 40801 ft | 526 kts | 109° |
| 2026-04-07 18:38 | 43.78800 | 92.42836 | 40803 ft | 525 kts | 109° |
| 2026-04-07 18:39 | 43.76445 | 92.52389 | 40806 ft | 525 kts | 109° |
| 2026-04-07 18:39 | 43.74081 | 92.61938 | 40798 ft | 525 kts | 109° |
| 2026-04-07 18:40 | 43.71708 | 92.71484 | 40790 ft | 525 kts | 110° |
| 2026-04-07 18:40 | 43.69331 | 92.81009 | 40792 ft | 524 kts | 110° |
| 2026-04-07 18:41 | 43.66947 | 92.90523 | 40800 ft | 524 kts | 110° |
| 2026-04-07 18:41 | 43.64556 | 93.00030 | 40799 ft | 524 kts | 110° |
| 2026-04-07 18:42 | 43.62249 | 93.09570 | 40790 ft | 524 kts | 109° |
| 2026-04-07 18:42 | 43.59984 | 93.19143 | 40783 ft | 525 kts | 109° |
| 2026-04-07 18:43 | 43.57702 | 93.28702 | 40783 ft | 525 kts | 109° |
| 2026-04-07 18:43 | 43.55399 | 93.38255 | 40788 ft | 525 kts | 109° |
| 2026-04-07 18:44 | 43.53082 | 93.47799 | 40774 ft | 525 kts | 110° |
| 2026-04-07 18:44 | 43.50757 | 93.57336 | 40777 ft | 525 kts | 110° |
| 2026-04-07 18:45 | 43.48442 | 93.66798 | 40774 ft | 525 kts | 110° |
| 2026-04-07 18:45 | 43.46103 | 93.76318 | 40773 ft | 525 kts | 110° |
| 2026-04-07 18:46 | 43.43756 | 93.85836 | 40768 ft | 526 kts | 110° |
| 2026-04-07 18:46 | 43.41394 | 93.95368 | 40767 ft | 527 kts | 110° |
| 2026-04-07 18:47 | 43.39025 | 94.04894 | 40769 ft | 527 kts | 110° |
| 2026-04-07 18:47 | 43.36649 | 94.14406 | 40754 ft | 526 kts | 110° |
| 2026-04-07 18:48 | 43.34265 | 94.23913 | 40745 ft | 526 kts | 110° |
| 2026-04-07 18:48 | 43.31876 | 94.33399 | 40740 ft | 525 kts | 110° |
| 2026-04-07 18:49 | 43.29481 | 94.42875 | 40732 ft | 525 kts | 110° |
| 2026-04-07 18:49 | 43.27079 | 94.52337 | 40731 ft | 525 kts | 110° |
| 2026-04-07 18:50 | 43.24670 | 94.61788 | 40717 ft | 525 kts | 110° |
| 2026-04-07 18:50 | 43.22255 | 94.71222 | 40716 ft | 524 kts | 111° |
| 2026-04-07 18:51 | 43.19833 | 94.80648 | 40707 ft | 524 kts | 111° |
| 2026-04-07 18:51 | 43.17406 | 94.90060 | 40688 ft | 524 kts | 111° |
| 2026-04-07 18:52 | 43.14961 | 94.99461 | 40685 ft | 524 kts | 112° |
| 2026-04-07 18:52 | 43.11453 | 95.08098 | 40675 ft | 516 kts | 131° |
| 2026-04-07 18:53 | 43.09013 | 95.11662 | 40678 ft | 511 kts | 142° |
| 2026-04-07 18:53 | 43.06235 | 95.14666 | 40681 ft | 508 kts | 147° |
| 2026-04-07 18:53 | 43.00469 | 95.20142 | 40670 ft | 508 kts | 150° |
| 2026-04-07 18:54 | 42.94584 | 95.25495 | 40672 ft | 508 kts | 150° |
| 2026-04-07 18:54 | 42.88711 | 95.30872 | 40664 ft | 508 kts | 149° |
| 2026-04-07 18:55 | 42.82861 | 95.36273 | 40665 ft | 507 kts | 149° |
| 2026-04-07 18:55 | 42.77029 | 95.41663 | 40661 ft | 506 kts | 149° |
| 2026-04-07 18:56 | 42.71196 | 95.47039 | 40663 ft | 506 kts | 149° |
| 2026-04-07 18:56 | 42.65365 | 95.52400 | 40662 ft | 505 kts | 150° |
| 2026-04-07 18:57 | 42.59549 | 95.57735 | 40663 ft | 504 kts | 150° |
| 2026-04-07 18:57 | 42.53733 | 95.63057 | 40663 ft | 504 kts | 150° |
| 2026-04-07 18:58 | 42.47917 | 95.68367 | 40669 ft | 504 kts | 150° |
| 2026-04-07 18:58 | 42.42105 | 95.73662 | 40674 ft | 502 kts | 150° |
| 2026-04-07 18:59 | 42.36317 | 95.78937 | 40689 ft | 501 kts | 149° |
| 2026-04-07 18:59 | 42.30561 | 95.84274 | 40688 ft | 502 kts | 149° |
| 2026-04-07 19:00 | 42.24852 | 95.89581 | 40682 ft | 502 kts | 149° |
| 2026-04-07 19:00 | 42.19065 | 95.94936 | 40709 ft | 501 kts | 149° |
| 2026-04-07 19:01 | 42.13349 | 96.00202 | 40708 ft | 501 kts | 149° |
| 2026-04-07 19:02 | 42.04711 | 96.08134 | 40711 ft | 501 kts | 149° |
| 2026-04-07 19:02 | 41.98962 | 96.13401 | 40715 ft | 499 kts | 149° |
| 2026-04-07 19:03 | 41.94183 | 96.17858 | 40719 ft | 500 kts | 146° |
| 2026-04-07 19:03 | 41.90801 | 96.22088 | 40718 ft | 505 kts | 134° |
| 2026-04-07 19:03 | 41.89330 | 96.24606 | 40713 ft | 508 kts | 127° |
| 2026-04-07 19:03 | 41.87565 | 96.28732 | 40710 ft | 512 kts | 116° |
| 2026-04-07 19:04 | 41.86363 | 96.33235 | 40712 ft | 516 kts | 105° |
| 2026-04-07 19:04 | 41.85167 | 96.42747 | 40700 ft | 518 kts | 99° |
| 2026-04-07 19:05 | 41.84284 | 96.52352 | 40706 ft | 519 kts | 98° |
| 2026-04-07 19:05 | 41.83394 | 96.61953 | 40699 ft | 519 kts | 99° |
| 2026-04-07 19:06 | 41.82460 | 96.71468 | 40688 ft | 519 kts | 99° |
| 2026-04-07 19:06 | 41.81490 | 96.81049 | 40692 ft | 519 kts | 99° |
| 2026-04-07 19:07 | 41.80510 | 96.90626 | 40684 ft | 518 kts | 99° |
| 2026-04-07 19:07 | 41.79525 | 97.00179 | 40671 ft | 517 kts | 99° |
| 2026-04-07 19:08 | 41.78534 | 97.09727 | 40672 ft | 517 kts | 99° |
| 2026-04-07 19:08 | 41.77535 | 97.19279 | 40662 ft | 517 kts | 99° |
| 2026-04-07 19:09 | 41.76528 | 97.28822 | 40665 ft | 518 kts | 99° |
| 2026-04-07 19:09 | 41.75513 | 97.38366 | 40652 ft | 518 kts | 100° |
| 2026-04-07 19:10 | 41.74490 | 97.47904 | 40660 ft | 518 kts | 100° |
| 2026-04-07 19:10 | 41.73460 | 97.57432 | 40655 ft | 517 kts | 100° |
| 2026-04-07 19:11 | 41.72422 | 97.66965 | 40643 ft | 516 kts | 100° |
| 2026-04-07 19:11 | 41.71379 | 97.76468 | 40632 ft | 516 kts | 100° |
| 2026-04-07 19:12 | 41.70335 | 97.85903 | 40634 ft | 516 kts | 100° |
| 2026-04-07 19:12 | 41.69276 | 97.95398 | 40626 ft | 516 kts | 100° |
| 2026-04-07 19:13 | 41.68209 | 98.04886 | 40620 ft | 515 kts | 100° |
| 2026-04-07 19:13 | 41.67136 | 98.14362 | 40615 ft | 515 kts | 100° |
| 2026-04-07 19:14 | 41.66056 | 98.23834 | 40606 ft | 515 kts | 100° |
| 2026-04-07 19:14 | 41.64967 | 98.33305 | 40610 ft | 515 kts | 100° |
| 2026-04-07 19:15 | 41.63871 | 98.42766 | 40600 ft | 515 kts | 100° |
| 2026-04-07 19:15 | 41.62767 | 98.52232 | 40593 ft | 515 kts | 100° |
| 2026-04-07 19:16 | 41.61655 | 98.61689 | 40592 ft | 515 kts | 101° |
| 2026-04-07 19:16 | 41.60535 | 98.71147 | 40584 ft | 515 kts | 101° |
| 2026-04-07 19:17 | 41.59408 | 98.80599 | 40579 ft | 516 kts | 101° |
| 2026-04-07 19:17 | 41.58272 | 98.90054 | 40579 ft | 516 kts | 101° |
| 2026-04-07 19:18 | 41.57128 | 98.99511 | 40572 ft | 516 kts | 101° |
| 2026-04-07 19:18 | 41.55977 | 99.08962 | 40572 ft | 516 kts | 101° |
| 2026-04-07 19:19 | 41.54816 | 99.18422 | 40564 ft | 516 kts | 101° |
| 2026-04-07 19:19 | 41.53655 | 99.27816 | 40556 ft | 517 kts | 101° |
| 2026-04-07 19:20 | 41.52472 | 99.37329 | 40556 ft | 517 kts | 101° |
| 2026-04-07 19:20 | 41.51294 | 99.46725 | 40554 ft | 517 kts | 101° |
| 2026-04-07 19:21 | 41.50103 | 99.56173 | 40548 ft | 516 kts | 101° |
| 2026-04-07 19:21 | 41.48904 | 99.65610 | 40548 ft | 516 kts | 101° |
| 2026-04-07 19:22 | 41.47699 | 99.75033 | 40540 ft | 516 kts | 101° |
| 2026-04-07 19:22 | 41.46485 | 99.84462 | 40528 ft | 516 kts | 102° |
| 2026-04-07 19:23 | 41.45265 | 99.93877 | 40534 ft | 515 kts | 102° |
| 2026-04-07 19:23 | 41.44040 | 100.03264 | 40534 ft | 514 kts | 102° |
| 2026-04-07 19:24 | 41.42807 | 100.12651 | 40534 ft | 514 kts | 102° |
| 2026-04-07 19:24 | 41.41566 | 100.22036 | 40525 ft | 514 kts | 102° |
| 2026-04-07 19:25 | 41.40319 | 100.31407 | 40529 ft | 513 kts | 102° |
| 2026-04-07 19:25 | 41.39065 | 100.40768 | 40528 ft | 513 kts | 102° |
| 2026-04-07 19:26 | 41.37804 | 100.50127 | 40523 ft | 513 kts | 102° |
| 2026-04-07 19:26 | 41.36535 | 100.59481 | 40522 ft | 513 kts | 102° |
| 2026-04-07 19:27 | 41.35260 | 100.68821 | 40520 ft | 513 kts | 102° |
| 2026-04-07 19:27 | 41.33987 | 100.78091 | 40515 ft | 513 kts | 102° |
| 2026-04-07 19:28 | 41.32697 | 100.87421 | 40509 ft | 513 kts | 102° |
| 2026-04-07 19:28 | 41.31400 | 100.96746 | 40509 ft | 513 kts | 103° |
| 2026-04-07 19:29 | 41.30096 | 101.06061 | 40509 ft | 513 kts | 103° |
| 2026-04-07 19:29 | 41.28784 | 101.15378 | 40509 ft | 513 kts | 103° |
| 2026-04-07 19:30 | 41.27464 | 101.24695 | 40509 ft | 513 kts | 103° |
| 2026-04-07 19:30 | 41.26137 | 101.34004 | 40506 ft | 513 kts | 103° |
| 2026-04-07 19:31 | 41.24802 | 101.43314 | 40509 ft | 513 kts | 103° |
| 2026-04-07 19:31 | 41.23460 | 101.52617 | 40509 ft | 513 kts | 103° |
| 2026-04-07 19:32 | 41.22109 | 101.61924 | 40506 ft | 513 kts | 103° |
| 2026-04-07 19:32 | 41.20751 | 101.71223 | 40500 ft | 513 kts | 103° |
| 2026-04-07 19:33 | 41.19387 | 101.80517 | 40506 ft | 513 kts | 103° |
| 2026-04-07 19:33 | 41.18015 | 101.89802 | 40495 ft | 513 kts | 103° |
| 2026-04-07 19:34 | 41.16635 | 101.99089 | 40494 ft | 513 kts | 103° |
| 2026-04-07 19:34 | 41.15248 | 102.08370 | 40498 ft | 513 kts | 103° |
| 2026-04-07 19:35 | 41.13853 | 102.17649 | 40497 ft | 513 kts | 103° |
| 2026-04-07 19:35 | 41.12452 | 102.26915 | 40492 ft | 513 kts | 103° |
| 2026-04-07 19:36 | 41.11051 | 102.36127 | 40484 ft | 513 kts | 104° |
| 2026-04-07 19:36 | 41.09634 | 102.45389 | 40484 ft | 513 kts | 103° |
| 2026-04-07 19:37 | 41.08207 | 102.54666 | 40487 ft | 514 kts | 103° |
| 2026-04-07 19:37 | 41.06774 | 102.63934 | 40487 ft | 514 kts | 104° |
| 2026-04-07 19:38 | 41.05331 | 102.73210 | 40487 ft | 514 kts | 104° |
| 2026-04-07 19:38 | 41.03882 | 102.82475 | 40492 ft | 514 kts | 104° |
| 2026-04-07 19:39 | 41.02426 | 102.91738 | 40501 ft | 514 kts | 104° |
| 2026-04-07 19:39 | 41.00962 | 103.00991 | 40501 ft | 514 kts | 104° |
| 2026-04-07 19:40 | 40.99491 | 103.10244 | 40504 ft | 514 kts | 104° |
| 2026-04-07 19:40 | 40.98011 | 103.19500 | 40503 ft | 514 kts | 104° |
| 2026-04-07 19:41 | 40.96525 | 103.28743 | 40509 ft | 514 kts | 104° |
| 2026-04-07 19:41 | 40.95032 | 103.37982 | 40515 ft | 514 kts | 104° |
| 2026-04-07 19:42 | 40.93531 | 103.47221 | 40515 ft | 514 kts | 104° |
| 2026-04-07 19:42 | 40.92022 | 103.56456 | 40518 ft | 514 kts | 104° |
| 2026-04-07 19:43 | 40.90506 | 103.65684 | 40520 ft | 514 kts | 104° |
| 2026-04-07 19:43 | 40.88983 | 103.74910 | 40520 ft | 514 kts | 104° |
| 2026-04-07 19:44 | 40.87452 | 103.84134 | 40525 ft | 514 kts | 104° |
| 2026-04-07 19:44 | 40.85914 | 103.93352 | 40528 ft | 514 kts | 104° |
| 2026-04-07 19:45 | 40.84367 | 104.02571 | 40528 ft | 514 kts | 104° |
| 2026-04-07 19:45 | 40.82813 | 104.11793 | 40533 ft | 514 kts | 104° |
| 2026-04-07 19:46 | 40.81250 | 104.21011 | 40535 ft | 514 kts | 104° |
| 2026-04-07 19:46 | 40.79681 | 104.30225 | 40540 ft | 515 kts | 104° |
| 2026-04-07 19:47 | 40.78103 | 104.39438 | 40557 ft | 515 kts | 105° |
| 2026-04-07 19:47 | 40.76518 | 104.48646 | 40558 ft | 515 kts | 105° |
| 2026-04-07 19:48 | 40.74926 | 104.57852 | 40567 ft | 515 kts | 105° |
| 2026-04-07 19:48 | 40.73328 | 104.67043 | 40568 ft | 515 kts | 105° |
| 2026-04-07 19:49 | 40.71732 | 104.76176 | 40571 ft | 515 kts | 105° |
| 2026-04-07 19:49 | 40.70118 | 104.85367 | 40570 ft | 515 kts | 105° |
| 2026-04-07 19:50 | 40.68498 | 104.94546 | 40570 ft | 515 kts | 105° |
| 2026-04-07 19:50 | 40.66867 | 105.03737 | 40570 ft | 515 kts | 105° |
| 2026-04-07 19:51 | 40.65230 | 105.12925 | 40576 ft | 515 kts | 105° |
| 2026-04-07 19:51 | 40.63852 | 105.20618 | 40591 ft | 515 kts | 105° |
| 2026-04-07 19:52 | 40.62202 | 105.29792 | 40574 ft | 515 kts | 105° |
| 2026-04-07 19:52 | 40.60543 | 105.38972 | 40582 ft | 516 kts | 105° |
| 2026-04-07 19:53 | 40.58886 | 105.48093 | 40583 ft | 516 kts | 105° |
| 2026-04-07 19:53 | 40.57212 | 105.57266 | 40595 ft | 516 kts | 105° |
| 2026-04-07 19:54 | 40.55528 | 105.66448 | 40599 ft | 516 kts | 105° |
| 2026-04-07 19:54 | 40.53838 | 105.75618 | 40602 ft | 516 kts | 105° |
| 2026-04-07 19:55 | 40.52140 | 105.84788 | 40608 ft | 516 kts | 105° |
| 2026-04-07 19:55 | 40.50435 | 105.93955 | 40602 ft | 516 kts | 106° |
| 2026-04-07 19:56 | 40.48722 | 106.03116 | 40612 ft | 517 kts | 105° |
| 2026-04-07 19:56 | 40.46999 | 106.12290 | 40621 ft | 518 kts | 106° |
| 2026-04-07 19:57 | 40.45268 | 106.21461 | 40625 ft | 518 kts | 106° |
| 2026-04-07 19:57 | 40.43531 | 106.30628 | 40613 ft | 518 kts | 106° |
| 2026-04-07 19:58 | 40.41784 | 106.39798 | 40623 ft | 518 kts | 106° |
| 2026-04-07 19:58 | 40.40029 | 106.48966 | 40626 ft | 518 kts | 106° |
| 2026-04-07 19:59 | 40.38267 | 106.58131 | 40627 ft | 518 kts | 106° |
| 2026-04-07 19:59 | 40.36499 | 106.67287 | 40620 ft | 518 kts | 106° |
| 2026-04-07 20:00 | 40.34723 | 106.76441 | 40618 ft | 518 kts | 106° |
| 2026-04-07 20:00 | 40.32050 | 106.90187 | 40622 ft | 519 kts | 105° |
| 2026-04-07 20:01 | 40.31413 | 106.99607 | 40625 ft | 522 kts | 86° |
| 2026-04-07 20:01 | 40.32327 | 107.08982 | 40621 ft | 523 kts | 81° |
| 2026-04-07 20:02 | 40.33534 | 107.18455 | 40627 ft | 524 kts | 80° |
| 2026-04-07 20:02 | 40.34739 | 107.27804 | 40628 ft | 524 kts | 81° |
| 2026-04-07 20:03 | 40.35915 | 107.37232 | 40639 ft | 524 kts | 81° |
| 2026-04-07 20:03 | 40.37065 | 107.46668 | 40637 ft | 524 kts | 81° |
| 2026-04-07 20:04 | 40.38204 | 107.56112 | 40641 ft | 524 kts | 81° |
| 2026-04-07 20:04 | 40.39336 | 107.65555 | 40654 ft | 524 kts | 81° |
| 2026-04-07 20:05 | 40.40461 | 107.75004 | 40656 ft | 524 kts | 81° |
| 2026-04-07 20:05 | 40.41578 | 107.84450 | 40651 ft | 524 kts | 81° |
| 2026-04-07 20:06 | 40.42689 | 107.93902 | 40664 ft | 524 kts | 81° |
| 2026-04-07 20:06 | 40.43795 | 108.03358 | 40659 ft | 524 kts | 81° |
| 2026-04-07 20:07 | 40.44885 | 108.12810 | 40666 ft | 524 kts | 81° |
| 2026-04-07 20:07 | 40.45966 | 108.22275 | 40668 ft | 524 kts | 81° |
| 2026-04-07 20:08 | 40.47041 | 108.31739 | 40667 ft | 524 kts | 81° |
| 2026-04-07 20:08 | 40.48110 | 108.41210 | 40664 ft | 524 kts | 81° |
| 2026-04-07 20:09 | 40.49170 | 108.50684 | 40681 ft | 525 kts | 81° |
| 2026-04-07 20:09 | 40.50224 | 108.60163 | 40678 ft | 525 kts | 81° |
| 2026-04-07 20:10 | 40.51265 | 108.69593 | 40669 ft | 525 kts | 81° |
| 2026-04-07 20:10 | 40.52303 | 108.79081 | 40690 ft | 525 kts | 81° |
| 2026-04-07 20:11 | 40.53336 | 108.88590 | 40705 ft | 526 kts | 81° |
| 2026-04-07 20:11 | 40.54363 | 108.98123 | 40688 ft | 526 kts | 81° |
| 2026-04-07 20:12 | 40.55381 | 109.07647 | 40706 ft | 526 kts | 82° |
| 2026-04-07 20:12 | 40.56393 | 109.17189 | 40719 ft | 527 kts | 81° |
| 2026-04-07 20:13 | 40.57398 | 109.26747 | 40721 ft | 528 kts | 81° |
| 2026-04-07 20:13 | 40.58396 | 109.36307 | 40722 ft | 527 kts | 82° |
| 2026-04-07 20:14 | 40.59385 | 109.45864 | 40733 ft | 527 kts | 82° |
| 2026-04-07 20:14 | 40.60367 | 109.55436 | 40738 ft | 528 kts | 81° |
| 2026-04-07 20:15 | 40.61342 | 109.65019 | 40740 ft | 528 kts | 82° |
| 2026-04-07 20:15 | 40.62310 | 109.74609 | 40745 ft | 528 kts | 82° |
| 2026-04-07 20:16 | 40.63270 | 109.84199 | 40750 ft | 529 kts | 82° |
| 2026-04-07 20:16 | 40.64223 | 109.93805 | 40758 ft | 529 kts | 82° |
| 2026-04-07 20:17 | 40.64643 | 110.03472 | 40756 ft | 529 kts | 89° |
| 2026-04-07 20:17 | 40.64646 | 110.13166 | 40765 ft | 529 kts | 90° |
| 2026-04-07 20:18 | 40.64574 | 110.22861 | 40770 ft | 530 kts | 90° |
| 2026-04-07 20:18 | 40.64496 | 110.32567 | 40771 ft | 530 kts | 90° |
| 2026-04-07 20:19 | 40.64423 | 110.42208 | 40778 ft | 530 kts | 90° |
| 2026-04-07 20:19 | 40.64344 | 110.51919 | 40786 ft | 531 kts | 90° |
| 2026-04-07 20:20 | 40.64262 | 110.61635 | 40796 ft | 531 kts | 90° |
| 2026-04-07 20:20 | 40.64172 | 110.71354 | 40790 ft | 531 kts | 90° |
| 2026-04-07 20:21 | 40.64076 | 110.81071 | 40794 ft | 531 kts | 90° |
| 2026-04-07 20:21 | 40.63970 | 110.90791 | 40801 ft | 531 kts | 90° |
| 2026-04-07 20:22 | 40.63852 | 111.00510 | 40801 ft | 531 kts | 90° |
| 2026-04-07 20:22 | 40.63726 | 111.10230 | 40810 ft | 531 kts | 90° |
| 2026-04-07 20:23 | 40.63595 | 111.19944 | 40810 ft | 530 kts | 90° |
| 2026-04-07 20:23 | 40.63459 | 111.29645 | 40815 ft | 530 kts | 90° |
| 2026-04-07 20:24 | 40.63308 | 111.39351 | 40812 ft | 530 kts | 90° |
| 2026-04-07 20:24 | 40.63150 | 111.49062 | 40818 ft | 530 kts | 90° |
| 2026-04-07 20:25 | 40.62986 | 111.58763 | 40821 ft | 530 kts | 90° |
| 2026-04-07 20:25 | 40.62814 | 111.68471 | 40820 ft | 530 kts | 90° |
| 2026-04-07 20:26 | 40.62633 | 111.78178 | 40821 ft | 530 kts | 91° |
| 2026-04-07 20:26 | 40.62446 | 111.87820 | 40826 ft | 531 kts | 90° |
| 2026-04-07 20:27 | 40.62262 | 111.97532 | 40831 ft | 531 kts | 91° |
| 2026-04-07 20:27 | 40.62056 | 112.07243 | 40829 ft | 531 kts | 91° |
| 2026-04-07 20:28 | 40.61839 | 112.16961 | 40827 ft | 531 kts | 91° |
| 2026-04-07 20:28 | 40.61610 | 112.26676 | 40856 ft | 531 kts | 91° |
| 2026-04-07 20:29 | 40.61376 | 112.36395 | 40833 ft | 531 kts | 91° |
| 2026-04-07 20:29 | 40.61136 | 112.46108 | 40838 ft | 531 kts | 91° |
| 2026-04-07 20:30 | 40.60810 | 112.55799 | 40840 ft | 531 kts | 93° |
| 2026-04-07 20:30 | 40.60217 | 112.65501 | 40847 ft | 531 kts | 94° |
| 2026-04-07 20:31 | 40.59594 | 112.75182 | 40859 ft | 531 kts | 94° |
| 2026-04-07 20:31 | 40.58800 | 112.84850 | 40865 ft | 531 kts | 95° |
| 2026-04-07 20:32 | 40.58094 | 112.94511 | 40865 ft | 531 kts | 94° |
| 2026-04-07 20:32 | 40.57457 | 113.04190 | 40868 ft | 531 kts | 94° |
| 2026-04-07 20:33 | 40.56822 | 113.13794 | 40863 ft | 531 kts | 94° |
| 2026-04-07 20:33 | 40.56166 | 113.23466 | 40863 ft | 531 kts | 94° |
| 2026-04-07 20:34 | 40.55497 | 113.33127 | 40861 ft | 531 kts | 94° |
| 2026-04-07 20:34 | 40.54819 | 113.42797 | 40870 ft | 531 kts | 95° |
| 2026-04-07 20:35 | 40.54132 | 113.52465 | 40876 ft | 531 kts | 95° |
| 2026-04-07 20:35 | 40.53438 | 113.62131 | 40875 ft | 531 kts | 95° |
| 2026-04-07 20:36 | 40.52737 | 113.71789 | 40893 ft | 531 kts | 95° |
| 2026-04-07 20:36 | 40.52026 | 113.81451 | 40914 ft | 531 kts | 95° |
| 2026-04-07 20:37 | 40.51308 | 113.91105 | 40933 ft | 530 kts | 95° |
| 2026-04-07 20:37 | 40.50584 | 114.00752 | 40948 ft | 531 kts | 95° |
| 2026-04-07 20:38 | 40.50102 | 114.10415 | 40950 ft | 530 kts | 91° |
| 2026-04-07 20:38 | 40.49767 | 114.20089 | 40958 ft | 531 kts | 91° |
| 2026-04-07 20:39 | 40.49396 | 114.29774 | 40960 ft | 531 kts | 92° |
| 2026-04-07 20:39 | 40.49051 | 114.37818 | 40960 ft | 531 kts | 92° |
| 2026-04-07 20:40 | 40.48614 | 114.47503 | 40956 ft | 531 kts | 92° |
| 2026-04-07 20:40 | 40.48168 | 114.57180 | 40964 ft | 531 kts | 92° |
| 2026-04-07 20:41 | 40.47716 | 114.66860 | 40970 ft | 531 kts | 92° |
| 2026-04-07 20:41 | 40.47256 | 114.76544 | 40974 ft | 531 kts | 92° |
| 2026-04-07 20:42 | 40.46789 | 114.86213 | 40974 ft | 531 kts | 92° |
| 2026-04-07 20:42 | 40.46313 | 114.95890 | 40974 ft | 531 kts | 92° |
| 2026-04-07 20:43 | 40.45830 | 115.05567 | 40979 ft | 531 kts | 92° |
| 2026-04-07 20:43 | 40.45338 | 115.15242 | 40978 ft | 531 kts | 92° |
| 2026-04-07 20:44 | 40.44841 | 115.24861 | 40980 ft | 531 kts | 93° |
| 2026-04-07 20:44 | 40.44333 | 115.34538 | 40977 ft | 532 kts | 93° |
| 2026-04-07 20:45 | 40.43816 | 115.44228 | 40977 ft | 532 kts | 93° |
| 2026-04-07 20:45 | 40.43291 | 115.53920 | 40988 ft | 532 kts | 93° |
| 2026-04-07 20:46 | 40.42596 | 115.63595 | 40987 ft | 533 kts | 95° |
| 2026-04-07 20:46 | 40.41758 | 115.73257 | 40988 ft | 533 kts | 95° |
| 2026-04-07 20:47 | 40.40930 | 115.82925 | 40993 ft | 533 kts | 95° |
| 2026-04-07 20:47 | 40.40122 | 115.92599 | 40993 ft | 533 kts | 95° |
| 2026-04-07 20:48 | 40.39316 | 116.02275 | 41011 ft | 533 kts | 95° |
| 2026-04-07 20:48 | 40.38503 | 116.11941 | 41007 ft | 533 kts | 95° |
| 2026-04-07 20:49 | 40.37682 | 116.21591 | 40990 ft | 532 kts | 95° |
| 2026-04-07 20:49 | 40.36853 | 116.31243 | 41010 ft | 533 kts | 95° |
| 2026-04-07 20:50 | 40.36016 | 116.40896 | 41009 ft | 533 kts | 95° |
| 2026-04-07 20:50 | 40.35170 | 116.50547 | 41007 ft | 533 kts | 95° |
| 2026-04-07 20:51 | 40.34238 | 116.60187 | 41005 ft | 534 kts | 100° |
| 2026-04-07 20:51 | 40.31731 | 116.69304 | 41003 ft | 533 kts | 121° |
| 2026-04-07 20:52 | 40.29625 | 116.73282 | 41003 ft | 530 kts | 133° |
| 2026-04-07 20:52 | 40.27023 | 116.76657 | 41012 ft | 525 kts | 144° |
| 2026-04-07 20:52 | 40.24028 | 116.79325 | 41000 ft | 519 kts | 156° |
| 2026-04-07 20:52 | 40.20751 | 116.81224 | 41003 ft | 511 kts | 167° |
| 2026-04-07 20:53 | 40.13865 | 116.82624 | 40997 ft | 495 kts | 187° |
| 2026-04-07 20:53 | 40.10479 | 116.82169 | 40996 ft | 486 kts | 198° |
| 2026-04-07 20:53 | 40.07128 | 116.81459 | 41002 ft | 490 kts | 192° |
| 2026-04-07 20:54 | 40.00278 | 116.81508 | 41001 ft | 502 kts | 180° |
| 2026-04-07 20:54 | 39.93331 | 116.82678 | 41002 ft | 505 kts | 177° |
| 2026-04-07 20:55 | 39.86394 | 116.84094 | 41002 ft | 505 kts | 176° |
| 2026-04-07 20:55 | 39.79450 | 116.85524 | 41000 ft | 505 kts | 176° |
| 2026-04-07 20:56 | 39.72513 | 116.86968 | 40997 ft | 504 kts | 176° |
| 2026-04-07 20:56 | 39.65586 | 116.88413 | 40996 ft | 504 kts | 176° |
| 2026-04-07 20:57 | 39.58654 | 116.89850 | 40994 ft | 504 kts | 176° |
| 2026-04-07 20:57 | 39.51719 | 116.91281 | 40992 ft | 504 kts | 177° |
| 2026-04-07 20:58 | 39.44800 | 116.92704 | 40993 ft | 503 kts | 177° |
| 2026-04-07 20:58 | 39.37886 | 116.94123 | 40990 ft | 503 kts | 177° |
| 2026-04-07 20:59 | 39.30968 | 116.95540 | 40987 ft | 504 kts | 177° |
| 2026-04-07 20:59 | 39.24045 | 116.97051 | 40987 ft | 508 kts | 173° |
| 2026-04-07 21:00 | 39.14443 | 117.03238 | 40996 ft | 531 kts | 142° |
| 2026-04-07 21:00 | 39.11905 | 117.06717 | 40976 ft | 537 kts | 130° |
| 2026-04-07 21:01 | 39.09895 | 117.10786 | 40994 ft | 542 kts | 118° |
| 2026-04-07 21:01 | 39.08498 | 117.15302 | 40996 ft | 545 kts | 106° |
| 2026-04-07 21:01 | 39.07780 | 117.20078 | 40995 ft | 545 kts | 94° |
| 2026-04-07 21:01 | 39.07761 | 117.24941 | 41013 ft | 542 kts | 82° |
| 2026-04-07 21:02 | 39.08128 | 117.29764 | 40997 ft | 543 kts | 86° |
| 2026-04-07 21:02 | 39.07859 | 117.39483 | 40999 ft | 544 kts | 88° |
| 2026-04-07 21:03 | 39.07867 | 117.49219 | 40998 ft | 544 kts | 89° |
| 2026-04-07 21:03 | 39.07736 | 117.58967 | 40995 ft | 545 kts | 89° |
| 2026-04-07 21:04 | 39.07593 | 117.68719 | 40997 ft | 545 kts | 89° |
| 2026-04-07 21:04 | 39.07445 | 117.78466 | 40998 ft | 545 kts | 90° |
| 2026-04-07 21:05 | 39.07291 | 117.88218 | 40998 ft | 545 kts | 90° |
| 2026-04-07 21:05 | 39.07129 | 117.97901 | 40999 ft | 545 kts | 90° |
| 2026-04-07 21:06 | 39.06347 | 118.07607 | 40999 ft | 546 kts | 99° |
| 2026-04-07 21:06 | 39.04913 | 118.17211 | 41000 ft | 546 kts | 101° |
| 2026-04-07 21:07 | 39.03370 | 118.26763 | 41001 ft | 545 kts | 102° |
| 2026-04-07 21:07 | 39.01819 | 118.36312 | 41001 ft | 545 kts | 101° |
| 2026-04-07 21:08 | 39.00276 | 118.45864 | 41004 ft | 546 kts | 101° |
| 2026-04-07 21:08 | 38.98735 | 118.55428 | 41005 ft | 546 kts | 101° |
| 2026-04-07 21:09 | 38.97181 | 118.64986 | 41005 ft | 546 kts | 102° |
| 2026-04-07 21:09 | 38.95616 | 118.74543 | 41007 ft | 547 kts | 102° |
| 2026-04-07 21:10 | 38.94043 | 118.84107 | 41007 ft | 547 kts | 102° |
| 2026-04-07 21:10 | 38.92463 | 118.93667 | 41007 ft | 547 kts | 102° |
| 2026-04-07 21:11 | 38.90874 | 119.03234 | 41007 ft | 548 kts | 102° |
| 2026-04-07 21:11 | 38.89275 | 119.12806 | 41007 ft | 549 kts | 102° |
| 2026-04-07 21:12 | 38.87667 | 119.22379 | 41007 ft | 549 kts | 102° |
| 2026-04-07 21:12 | 38.86051 | 119.31953 | 41012 ft | 549 kts | 102° |
| 2026-04-07 21:13 | 38.84426 | 119.41531 | 41016 ft | 550 kts | 102° |
| 2026-04-07 21:13 | 38.82803 | 119.51044 | 41011 ft | 550 kts | 102° |
| 2026-04-07 21:14 | 38.81158 | 119.60633 | 41018 ft | 550 kts | 102° |
| 2026-04-07 21:14 | 38.79507 | 119.70214 | 41018 ft | 550 kts | 102° |
| 2026-04-07 21:15 | 38.77837 | 119.79852 | 41020 ft | 550 kts | 102° |
| 2026-04-07 21:15 | 38.76197 | 119.89442 | 41020 ft | 551 kts | 101° |
| 2026-04-07 21:16 | 38.74634 | 119.98983 | 41024 ft | 551 kts | 101° |
| 2026-04-07 21:16 | 38.72979 | 120.08564 | 41023 ft | 550 kts | 107° |
| 2026-04-07 21:16 | 38.71562 | 120.13106 | 41031 ft | 548 kts | 120° |
| 2026-04-07 21:17 | 38.69449 | 120.17115 | 41017 ft | 542 kts | 135° |
| 2026-04-07 21:17 | 38.66706 | 120.20357 | 41038 ft | 533 kts | 150° |
| 2026-04-07 21:17 | 38.63516 | 120.22640 | 41040 ft | 520 kts | 165° |
| 2026-04-07 21:18 | 38.56873 | 120.26316 | 41036 ft | 532 kts | 151° |
| 2026-04-07 21:18 | 38.54031 | 120.29396 | 41042 ft | 542 kts | 135° |
| 2026-04-07 21:18 | 38.51816 | 120.33309 | 41039 ft | 548 kts | 120° |
| 2026-04-07 21:18 | 38.50382 | 120.37815 | 41043 ft | 550 kts | 104° |
| 2026-04-07 21:19 | 38.49824 | 120.42630 | 41045 ft | 547 kts | 88° |
| 2026-04-07 21:19 | 38.50175 | 120.47429 | 41041 ft | 541 kts | 73° |
| 2026-04-07 21:19 | 38.51399 | 120.51914 | 41053 ft | 531 kts | 57° |
| 2026-04-07 21:19 | 38.53396 | 120.55792 | 41047 ft | 517 kts | 41° |
| 2026-04-07 21:20 | 38.56008 | 120.58819 | 41040 ft | 500 kts | 26° |
| 2026-04-07 21:20 | 38.59038 | 120.60818 | 41056 ft | 482 kts | 11° |
| 2026-04-07 21:20 | 38.62244 | 120.61687 | 41049 ft | 465 kts | 356° |
| 2026-04-07 21:21 | 38.68658 | 120.63323 | 41050 ft | 490 kts | 18° |
| 2026-04-07 21:21 | 38.71571 | 120.65694 | 41041 ft | 506 kts | 33° |
| 2026-04-07 21:21 | 38.73993 | 120.69045 | 41043 ft | 521 kts | 49° |
| 2026-04-07 21:21 | 38.75736 | 120.73163 | 41056 ft | 533 kts | 65° |
| 2026-04-07 21:22 | 38.76664 | 120.77795 | 41046 ft | 542 kts | 80° |
| 2026-04-07 21:22 | 38.76696 | 120.82628 | 41047 ft | 546 kts | 96° |
| 2026-04-07 21:22 | 38.75824 | 120.87363 | 41050 ft | 547 kts | 111° |
| 2026-04-07 21:22 | 38.74112 | 120.91684 | 41049 ft | 544 kts | 127° |
| 2026-04-07 21:23 | 38.71689 | 120.95360 | 41055 ft | 538 kts | 140° |
| 2026-04-07 21:23 | 38.65893 | 121.01308 | 41042 ft | 532 kts | 152° |
| 2026-04-07 21:24 | 38.59518 | 121.06045 | 41053 ft | 529 kts | 158° |
| 2026-04-07 21:24 | 38.53016 | 121.10442 | 41050 ft | 531 kts | 155° |
| 2026-04-07 21:24 | 38.49982 | 121.13200 | 41056 ft | 540 kts | 142° |
| 2026-04-07 21:25 | 38.47434 | 121.16740 | 41056 ft | 546 kts | 128° |
| 2026-04-07 21:25 | 38.45564 | 121.20970 | 41061 ft | 549 kts | 114° |
| 2026-04-07 21:25 | 38.44303 | 121.25566 | 41061 ft | 550 kts | 105° |
| 2026-04-07 21:26 | 38.42698 | 121.35131 | 41058 ft | 552 kts | 99° |
| 2026-04-07 21:26 | 38.41594 | 121.43148 | 41064 ft | 553 kts | 99° |
| 2026-04-07 21:27 | 38.40163 | 121.52772 | 41065 ft | 553 kts | 101° |
| 2026-04-07 21:27 | 38.38588 | 121.62375 | 41067 ft | 553 kts | 101° |
| 2026-04-07 21:28 | 38.36967 | 121.71964 | 41067 ft | 554 kts | 101° |
| 2026-04-07 21:28 | 38.35342 | 121.81542 | 41068 ft | 554 kts | 101° |
| 2026-04-07 21:29 | 38.33712 | 121.91145 | 41081 ft | 555 kts | 101° |
| 2026-04-07 21:29 | 38.32078 | 122.00744 | 41083 ft | 555 kts | 101° |
| 2026-04-07 21:30 | 38.30447 | 122.10279 | 41091 ft | 555 kts | 101° |
| 2026-04-07 21:30 | 38.28797 | 122.19872 | 41091 ft | 555 kts | 101° |
| 2026-04-07 21:31 | 38.27171 | 122.29480 | 41095 ft | 555 kts | 100° |
| 2026-04-07 21:31 | 38.25676 | 122.39108 | 41099 ft | 554 kts | 105° |
| 2026-04-07 21:31 | 38.24385 | 122.43722 | 41099 ft | 553 kts | 116° |
| 2026-04-07 21:32 | 38.22496 | 122.47956 | 41097 ft | 550 kts | 128° |
| 2026-04-07 21:32 | 38.17494 | 122.55249 | 41102 ft | 547 kts | 137° |
| 2026-04-07 21:33 | 38.12134 | 122.62103 | 41108 ft | 547 kts | 139° |
| 2026-04-07 21:33 | 38.06732 | 122.68923 | 41108 ft | 548 kts | 138° |
| 2026-04-07 21:34 | 38.01382 | 122.75818 | 41113 ft | 549 kts | 138° |
| 2026-04-07 21:34 | 37.96051 | 122.82739 | 41110 ft | 549 kts | 138° |
| 2026-04-07 21:35 | 37.90714 | 122.89654 | 41123 ft | 549 kts | 138° |
| 2026-04-07 21:35 | 37.85405 | 122.96508 | 41109 ft | 549 kts | 138° |
| 2026-04-07 21:36 | 37.80041 | 123.03412 | 41124 ft | 551 kts | 138° |
| 2026-04-07 21:36 | 37.74666 | 123.10316 | 41129 ft | 551 kts | 138° |
| 2026-04-07 21:37 | 37.69286 | 123.17212 | 41137 ft | 551 kts | 138° |
| 2026-04-07 21:37 | 37.63904 | 123.24096 | 41132 ft | 551 kts | 138° |
| 2026-04-07 21:38 | 37.58509 | 123.30982 | 41137 ft | 552 kts | 139° |
| 2026-04-07 21:38 | 37.53592 | 123.38450 | 41149 ft | 555 kts | 130° |
| 2026-04-07 21:39 | 37.48933 | 123.46216 | 41145 ft | 557 kts | 129° |
| 2026-04-07 21:39 | 37.44302 | 123.54036 | 41149 ft | 557 kts | 129° |
| 2026-04-07 21:40 | 37.39655 | 123.61839 | 41149 ft | 557 kts | 129° |
| 2026-04-07 21:40 | 37.34992 | 123.69622 | 41153 ft | 557 kts | 129° |
| 2026-04-07 21:41 | 37.30317 | 123.77396 | 41154 ft | 558 kts | 129° |
| 2026-04-07 21:41 | 37.25634 | 123.85165 | 41156 ft | 558 kts | 129° |
| 2026-04-07 21:41 | 37.23297 | 123.89038 | 40955 ft | 556 kts | 130° |
| 2026-04-07 21:42 | 37.20992 | 123.92944 | 40707 ft | 558 kts | 126° |
| 2026-04-07 21:42 | 37.19059 | 123.97176 | 40475 ft | 561 kts | 115° |
| 2026-04-07 21:42 | 37.17716 | 124.01765 | 40239 ft | 561 kts | 103° |
| 2026-04-07 21:42 | 37.17075 | 124.06565 | 40003 ft | 557 kts | 91° |
| 2026-04-07 21:43 | 37.17001 | 124.11321 | 39571 ft | 551 kts | 85° |
| 2026-04-07 21:43 | 37.17109 | 124.16106 | 38985 ft | 549 kts | 83° |
| 2026-04-07 21:43 | 37.17305 | 124.20893 | 38234 ft | 550 kts | 83° |
| 2026-04-07 21:43 | 37.17528 | 124.25667 | 37523 ft | 548 kts | 83° |
| 2026-04-07 21:44 | 37.17730 | 124.30436 | 36839 ft | 548 kts | 84° |
| 2026-04-07 21:44 | 37.17885 | 124.35211 | 36136 ft | 547 kts | 84° |
| 2026-04-07 21:44 | 37.18011 | 124.39979 | 35412 ft | 547 kts | 85° |
| 2026-04-07 21:44 | 37.18125 | 124.44751 | 34628 ft | 548 kts | 85° |
| 2026-04-07 21:45 | 37.18231 | 124.49532 | 33798 ft | 548 kts | 85° |
| 2026-04-07 21:45 | 37.18332 | 124.54304 | 32892 ft | 548 kts | 85° |
| 2026-04-07 21:45 | 37.18433 | 124.59079 | 31942 ft | 548 kts | 85° |
| 2026-04-07 21:45 | 37.18534 | 124.63846 | 31027 ft | 547 kts | 85° |
| 2026-04-07 21:46 | 37.18635 | 124.68618 | 30057 ft | 547 kts | 85° |
| 2026-04-07 21:46 | 37.18736 | 124.73380 | 29024 ft | 545 kts | 85° |
| 2026-04-07 21:46 | 37.18834 | 124.78102 | 28271 ft | 539 kts | 85° |
| 2026-04-07 21:46 | 37.18928 | 124.82770 | 27571 ft | 532 kts | 85° |
| 2026-04-07 21:47 | 37.19023 | 124.87379 | 26905 ft | 525 kts | 85° |
| 2026-04-07 21:47 | 37.19112 | 124.91933 | 26218 ft | 519 kts | 86° |
| 2026-04-07 21:47 | 37.19198 | 124.96432 | 25536 ft | 514 kts | 86° |
| 2026-04-07 21:47 | 37.19282 | 125.00890 | 24862 ft | 508 kts | 86° |
| 2026-04-07 21:48 | 37.19364 | 125.05294 | 24203 ft | 503 kts | 86° |
| 2026-04-07 21:48 | 37.19443 | 125.09663 | 23487 ft | 498 kts | 86° |
| 2026-04-07 21:48 | 37.19520 | 125.13921 | 22784 ft | 492 kts | 86° |
| 2026-04-07 21:48 | 37.19594 | 125.18175 | 22124 ft | 484 kts | 86° |
| 2026-04-07 21:49 | 37.19666 | 125.22366 | 21471 ft | 477 kts | 86° |
| 2026-04-07 21:49 | 37.19735 | 125.26493 | 20825 ft | 471 kts | 86° |
| 2026-04-07 21:49 | 37.19802 | 125.30580 | 20173 ft | 465 kts | 86° |
| 2026-04-07 21:49 | 37.19868 | 125.34613 | 19514 ft | 460 kts | 86° |
| 2026-04-07 21:50 | 37.19931 | 125.38610 | 18862 ft | 456 kts | 86° |
| 2026-04-07 21:50 | 37.19993 | 125.42567 | 18159 ft | 452 kts | 87° |
| 2026-04-07 21:50 | 37.20131 | 125.46475 | 17472 ft | 445 kts | 81° |
| 2026-04-07 21:50 | 37.20922 | 125.50148 | 16906 ft | 430 kts | 62° |
| 2026-04-07 21:51 | 37.22351 | 125.53420 | 16459 ft | 428 kts | 55° |
| 2026-04-07 21:51 | 37.23913 | 125.56583 | 15992 ft | 426 kts | 54° |
| 2026-04-07 21:51 | 37.25478 | 125.59725 | 15520 ft | 422 kts | 54° |
| 2026-04-07 21:51 | 37.27022 | 125.62843 | 15056 ft | 419 kts | 54° |
| 2026-04-07 21:52 | 37.28547 | 125.65937 | 14597 ft | 415 kts | 54° |
| 2026-04-07 21:52 | 37.30052 | 125.69004 | 14244 ft | 406 kts | 55° |
| 2026-04-07 21:52 | 37.31494 | 125.71962 | 13960 ft | 384 kts | 55° |
| 2026-04-07 21:52 | 37.32608 | 125.74898 | 13458 ft | 364 kts | 70° |
| 2026-04-07 21:53 | 37.32925 | 125.77960 | 13001 ft | 347 kts | 90° |
| 2026-04-07 21:53 | 37.32646 | 125.80903 | 12486 ft | 331 kts | 98° |
| 2026-04-07 21:53 | 37.32252 | 125.83691 | 12200 ft | 322 kts | 98° |
| 2026-04-07 21:53 | 37.31856 | 125.86458 | 11833 ft | 321 kts | 98° |
| 2026-04-07 21:54 | 37.31458 | 125.89212 | 11456 ft | 319 kts | 99° |
| 2026-04-07 21:54 | 37.30741 | 125.91812 | 11075 ft | 314 kts | 120° |
| 2026-04-07 21:54 | 37.29478 | 125.94060 | 10776 ft | 313 kts | 129° |
| 2026-04-07 21:54 | 37.28114 | 125.96178 | 10386 ft | 315 kts | 130° |
| 2026-04-07 21:55 | 37.26723 | 125.98302 | 10097 ft | 313 kts | 130° |
| 2026-04-07 21:55 | 37.25357 | 126.00431 | 9569 ft | 313 kts | 128° |
| 2026-04-07 21:55 | 37.24416 | 126.02848 | 9111 ft | 309 kts | 101° |
| 2026-04-07 21:55 | 37.24478 | 126.05469 | 8862 ft | 299 kts | 70° |
| 2026-04-07 21:56 | 37.25409 | 126.07760 | 8750 ft | 293 kts | 52° |
| 2026-04-07 21:56 | 37.26608 | 126.09817 | 8598 ft | 291 kts | 46° |
| 2026-04-07 21:56 | 37.28147 | 126.11390 | 8444 ft | 282 kts | 22° |
| 2026-04-07 21:56 | 37.29997 | 126.11977 | 8314 ft | 272 kts | 357° |
| 2026-04-07 21:57 | 37.31813 | 126.11520 | 8175 ft | 265 kts | 333° |
| 2026-04-07 21:57 | 37.33332 | 126.10260 | 8035 ft | 262 kts | 320° |
| 2026-04-07 21:57 | 37.34782 | 126.08878 | 7906 ft | 262 kts | 321° |
| 2026-04-07 21:57 | 37.36250 | 126.07520 | 7773 ft | 262 kts | 322° |
| 2026-04-07 21:58 | 37.37721 | 126.06176 | 7647 ft | 261 kts | 322° |
| 2026-04-07 21:58 | 37.39193 | 126.04843 | 7522 ft | 261 kts | 322° |
| 2026-04-07 21:58 | 37.40647 | 126.03538 | 7374 ft | 260 kts | 323° |
| 2026-04-07 21:58 | 37.42142 | 126.02257 | 7241 ft | 261 kts | 327° |
| 2026-04-07 21:59 | 37.43869 | 126.01454 | 7123 ft | 265 kts | 348° |
| 2026-04-07 21:59 | 37.45688 | 126.01615 | 6980 ft | 272 kts | 13° |
| 2026-04-07 21:59 | 37.47342 | 126.02800 | 6852 ft | 280 kts | 39° |
| 2026-04-07 21:59 | 37.48536 | 126.04757 | 6678 ft | 284 kts | 53° |
| 2026-04-07 22:00 | 37.49395 | 126.07005 | 6542 ft | 289 kts | 72° |
| 2026-04-07 22:00 | 37.49458 | 126.09519 | 6403 ft | 292 kts | 102° |
| 2026-04-07 22:00 | 37.48545 | 126.11764 | 6254 ft | 290 kts | 133° |
| 2026-04-07 22:00 | 37.47017 | 126.13387 | 6128 ft | 287 kts | 146° |
| 2026-04-07 22:01 | 37.45379 | 126.14819 | 5963 ft | 287 kts | 147° |
| 2026-04-07 22:01 | 37.43740 | 126.16239 | 5824 ft | 286 kts | 147° |
| 2026-04-07 22:01 | 37.42111 | 126.17666 | 5678 ft | 285 kts | 147° |
| 2026-04-07 22:01 | 37.40496 | 126.19093 | 5529 ft | 284 kts | 147° |
| 2026-04-07 22:02 | 37.38889 | 126.20528 | 5390 ft | 283 kts | 146° |
| 2026-04-07 22:02 | 37.37385 | 126.22116 | 5241 ft | 284 kts | 132° |
| 2026-04-07 22:02 | 37.36484 | 126.24296 | 5099 ft | 283 kts | 102° |
| 2026-04-07 22:02 | 37.36535 | 126.26727 | 4961 ft | 278 kts | 71° |
| 2026-04-07 22:03 | 37.37400 | 126.28864 | 4816 ft | 274 kts | 53° |
| 2026-04-07 22:03 | 37.38557 | 126.30751 | 4674 ft | 271 kts | 43° |
| 2026-04-07 22:03 | 37.41856 | 126.32417 | 4412 ft | 257 kts | 353° |
| 2026-04-07 22:04 | 37.43538 | 126.31776 | 4283 ft | 253 kts | 329° |
| 2026-04-07 22:04 | 37.45005 | 126.30572 | 4153 ft | 252 kts | 323° |
| 2026-04-07 22:04 | 37.46385 | 126.29310 | 4037 ft | 239 kts | 322° |
| 2026-04-07 22:04 | 37.47697 | 126.28117 | 3907 ft | 227 kts | 323° |
| 2026-04-07 22:05 | 37.48942 | 126.26984 | 3790 ft | 215 kts | 323° |
| 2026-04-07 22:05 | 37.50121 | 126.25918 | 3697 ft | 203 kts | 323° |
| 2026-04-07 22:05 | 37.51243 | 126.24907 | 3594 ft | 193 kts | 323° |
| 2026-04-07 22:05 | 37.52307 | 126.23960 | 3493 ft | 183 kts | 323° |
| 2026-04-07 22:06 | 37.53313 | 126.23058 | 3414 ft | 170 kts | 323° |
| 2026-04-07 22:06 | 37.54251 | 126.22243 | 3340 ft | 160 kts | 326° |
| 2026-04-07 22:06 | 37.55235 | 126.21678 | 3260 ft | 150 kts | 341° |
| 2026-04-07 22:06 | 37.56257 | 126.21509 | 3184 ft | 149 kts | 359° |
| 2026-04-07 22:07 | 37.57279 | 126.21737 | 3098 ft | 151 kts | 17° |
| 2026-04-07 22:07 | 37.58198 | 126.22349 | 3037 ft | 153 kts | 35° |
| 2026-04-07 22:07 | 37.58946 | 126.23300 | 2965 ft | 153 kts | 51° |
| 2026-04-07 22:07 | 37.59573 | 126.24388 | 2909 ft | 153 kts | 54° |
| 2026-04-07 22:08 | 37.60147 | 126.25516 | 2861 ft | 153 kts | 61° |
| 2026-04-07 22:08 | 37.60484 | 126.26775 | 2799 ft | 152 kts | 81° |
| 2026-04-07 22:08 | 37.60453 | 126.28100 | 2746 ft | 151 kts | 102° |
| 2026-04-07 22:08 | 37.60052 | 126.29315 | 2691 ft | 150 kts | 121° |
| 2026-04-07 22:09 | 37.59347 | 126.30274 | 2623 ft | 149 kts | 144° |
| 2026-04-07 22:09 | 37.58491 | 126.31006 | 2584 ft | 149 kts | 147° |
| 2026-04-07 22:09 | 37.57654 | 126.31738 | 2520 ft | 143 kts | 145° |
| 2026-04-07 22:09 | 37.56860 | 126.32449 | 2362 ft | 136 kts | 145° |
| 2026-04-07 22:10 | 37.56110 | 126.33121 | 2188 ft | 131 kts | 145° |
| 2026-04-07 22:10 | 37.55369 | 126.33783 | 2034 ft | 130 kts | 146° |
| 2026-04-07 22:10 | 37.54633 | 126.34439 | 1957 ft | 131 kts | 146° |
| 2026-04-07 22:10 | 37.53892 | 126.35099 | 1796 ft | 130 kts | 145° |
| 2026-04-07 22:11 | 37.53155 | 126.35757 | 1601 ft | 129 kts | 144° |
| 2026-04-07 22:11 | 37.52422 | 126.36411 | 1426 ft | 129 kts | 144° |
| 2026-04-07 22:11 | 37.51689 | 126.37063 | 1249 ft | 129 kts | 144° |
| 2026-04-07 22:11 | 37.50959 | 126.37712 | 1068 ft | 128 kts | 144° |
| 2026-04-07 22:12 | 37.50236 | 126.38363 | 856 ft | 128 kts | 144° |
| 2026-04-07 22:12 | 37.49504 | 126.38995 | 666 ft | 127 kts | 145° |
| 2026-04-07 22:12 | 37.48787 | 126.39639 | 517 ft | 128 kts | 142° |
| 2026-04-07 22:12 | 37.48064 | 126.40285 | 356 ft | 128 kts | 144° |
| 2026-04-07 22:13 | 37.47341 | 126.40928 | 193 ft | 127 kts | 142° |
| 2026-04-07 22:13 | 37.46622 | 126.41568 | 47 ft | 125 kts | 144° |
| 2026-04-07 22:13 | 37.45996 | 126.42125 | 38 ft | 81 kts | 144° |
| 2026-04-07 22:13 | 37.45706 | 126.42382 | 37 ft | 33 kts | 144° |
| 2026-04-07 22:14 | 37.45580 | 126.42544 | 37 ft | 21 kts | 124° |
| 2026-04-07 22:14 | 37.45528 | 126.42667 | 38 ft | 14 kts | 114° |
| 2026-04-07 22:14 | 37.45482 | 126.42790 | 39 ft | 17 kts | 116° |
| 2026-04-07 22:14 | 37.45401 | 126.42919 | 39 ft | 21 kts | 143° |
| 2026-04-07 22:15 | 37.45275 | 126.43031 | 39 ft | 23 kts | 145° |
| 2026-04-07 22:15 | 37.45161 | 126.43133 | 38 ft | 21 kts | 144° |
| 2026-04-07 22:15 | 37.45034 | 126.43247 | 38 ft | 24 kts | 144° |
| 2026-04-07 22:15 | 37.44889 | 126.43375 | 38 ft | 27 kts | 144° |
| 2026-04-07 22:16 | 37.44762 | 126.43488 | 38 ft | 15 kts | 144° |
| 2026-04-07 22:16 | 37.44739 | 126.43583 | 38 ft | 13 kts | 59° |
| 2026-04-07 22:16 | 37.44800 | 126.43691 | 38 ft | 17 kts | 54° |
| 2026-04-07 22:16 | 37.44869 | 126.43812 | 40 ft | 14 kts | 54° |
| 2026-04-07 22:17 | 37.44910 | 126.43908 | 39 ft | 12 kts | 83° |
| 2026-04-07 22:17 | 37.44929 | 126.44019 | 39 ft | 15 kts | 52° |
| 2026-04-07 22:17 | 37.44993 | 126.44130 | 38 ft | 14 kts | 54° |
| 2026-04-07 22:17 | 37.45022 | 126.44189 | 38 ft | 10 kts | 72° |
| 2026-04-07 22:18 | 37.44997 | 126.44285 | 38 ft | 13 kts | 124° |
| 2026-04-07 22:18 | 37.44959 | 126.44354 | 38 ft | 11 kts | 126° |
| 2026-04-07 22:18 | 37.44907 | 126.44443 | 38 ft | 13 kts | 126° |
| 2026-04-07 22:18 | 37.44885 | 126.44483 | 38 ft | 6 kts | 126° |
| 2026-04-07 22:19 | 37.44886 | 126.44514 | 38 ft | 2 kts | 56° |
| 2026-04-07 22:19 | 37.44909 | 126.44533 | 38 ft | 6 kts | 36° |
| 2026-04-07 22:19 | 37.44938 | 126.44560 | 38 ft | 3 kts | 36° |
| 2026-04-07 22:19 | 37.44952 | 126.44572 | 38 ft | 3 kts | 36° |
| 2026-04-07 22:20 | 37.44956 | 126.44575 | 38 ft | 1 kts | 36° |